<?xml version="1.0" encoding="UTF-8" standalone="no" ?><gpx xmlns="http://www.topografix.com/GPX/1/1" xmlns:gpxx="http://www.garmin.com/xmlschemas/GpxExtensions/v3" xmlns:wptx1="http://www.garmin.com/xmlschemas/WaypointExtension/v1" xmlns:gpxtpx="http://www.garmin.com/xmlschemas/TrackPointExtension/v1" creator="Alpha 100 EMEA/APAC" version="1.1" xmlns:xsi="http://www.w3.org/2001/XMLSchema-instance" xsi:schemaLocation="http://www.topografix.com/GPX/1/1 http://www.topografix.com/GPX/1/1/gpx.xsd http://www.garmin.com/xmlschemas/GpxExtensions/v3 http://www8.garmin.com/xmlschemas/GpxExtensionsv3.xsd http://www.garmin.com/xmlschemas/WaypointExtension/v1 http://www8.garmin.com/xmlschemas/WaypointExtensionv1.xsd http://www.garmin.com/xmlschemas/TrackPointExtension/v1 http://www.garmin.com/xmlschemas/TrackPointExtensionv1.xsd"><metadata><link href="http://www.garmin.com"><text>Garmin International</text></link><time>2026-04-22T15:34:06Z</time></metadata><trk><name>2026-04-22 09:34:02</name><extensions><gpxx:TrackExtension><gpxx:DisplayColor>Cyan</gpxx:DisplayColor></gpxx:TrackExtension></extensions><trkseg><trkpt lat="59.0921783913" lon="29.9865283258"><ele>137.13</ele><time>2026-04-22T12:21:40Z</time></trkpt><trkpt lat="59.0921805706" lon="29.9865284096"><ele>132.80</ele><time>2026-04-22T12:21:42Z</time></trkpt><trkpt lat="59.0921820793" lon="29.9865303375"><ele>129.43</ele><time>2026-04-22T12:21:44Z</time></trkpt><trkpt lat="59.0921850968" lon="29.9865327682"><ele>126.07</ele><time>2026-04-22T12:21:46Z</time></trkpt><trkpt lat="59.0921862703" lon="29.9865346123"><ele>121.74</ele><time>2026-04-22T12:21:47Z</time></trkpt><trkpt lat="59.0921874437" lon="29.9865336064"><ele>121.74</ele><time>2026-04-22T12:21:48Z</time></trkpt><trkpt lat="59.0921878628" lon="29.9865368754"><ele>117.90</ele><time>2026-04-22T12:21:51Z</time></trkpt><trkpt lat="59.0921870247" lon="29.9865438323"><ele>117.90</ele><time>2026-04-22T12:21:54Z</time></trkpt><trkpt lat="59.0921894554" lon="29.9865542259"><ele>114.05</ele><time>2026-04-22T12:21:57Z</time></trkpt><trkpt lat="59.0921924729" lon="29.9865763541"><ele>110.21</ele><time>2026-04-22T12:22:00Z</time></trkpt><trkpt lat="59.0921982564" lon="29.9865927827"><ele>106.84</ele><time>2026-04-22T12:22:03Z</time></trkpt><trkpt lat="59.0922020283" lon="29.9866051879"><ele>104.44</ele><time>2026-04-22T12:22:06Z</time></trkpt><trkpt lat="59.0922033694" lon="29.9866092950"><ele>101.08</ele><time>2026-04-22T12:22:09Z</time></trkpt><trkpt lat="59.0922018606" lon="29.9866193533"><ele>97.71</ele><time>2026-04-22T12:22:13Z</time></trkpt><trkpt lat="59.0921986755" lon="29.9866186827"><ele>94.83</ele><time>2026-04-22T12:22:17Z</time></trkpt><trkpt lat="59.0921952389" lon="29.9866169225"><ele>93.87</ele><time>2026-04-22T12:22:19Z</time></trkpt><trkpt lat="59.0921913832" lon="29.9866165034"><ele>90.98</ele><time>2026-04-22T12:22:24Z</time></trkpt><trkpt lat="59.0921912156" lon="29.9866095465"><ele>87.62</ele><time>2026-04-22T12:22:28Z</time></trkpt><trkpt lat="59.0921961609" lon="29.9866123963"><ele>85.21</ele><time>2026-04-22T12:22:34Z</time></trkpt><trkpt lat="59.0922059678" lon="29.9866169225"><ele>82.33</ele><time>2026-04-22T12:22:44Z</time></trkpt><trkpt lat="59.0922102425" lon="29.9866191857"><ele>80.89</ele><time>2026-04-22T12:22:51Z</time></trkpt><trkpt lat="59.0922032855" lon="29.9866025895"><ele>77.52</ele><time>2026-04-22T12:23:06Z</time></trkpt><trkpt lat="59.0922203846" lon="29.9865800422"><ele>77.04</ele><time>2026-04-22T12:23:40Z</time></trkpt><trkpt lat="59.0922289342" lon="29.9865783658"><ele>76.08</ele><time>2026-04-22T12:23:56Z</time></trkpt><trkpt lat="59.0922314487" lon="29.9865796231"><ele>77.04</ele><time>2026-04-22T12:24:06Z</time></trkpt><trkpt lat="59.0922322869" lon="29.9865846522"><ele>76.08</ele><time>2026-04-22T12:24:29Z</time></trkpt><trkpt lat="59.0922308620" lon="29.9865861610"><ele>78.00</ele><time>2026-04-22T12:24:32Z</time></trkpt><trkpt lat="59.0922265034" lon="29.9865853228"><ele>77.52</ele><time>2026-04-22T12:24:44Z</time></trkpt><trkpt lat="59.0922255814" lon="29.9865807965"><ele>76.08</ele><time>2026-04-22T12:25:02Z</time></trkpt><trkpt lat="59.0922182892" lon="29.9865765218"><ele>77.52</ele><time>2026-04-22T12:25:26Z</time></trkpt><trkpt lat="59.0922167804" lon="29.9865771085"><ele>76.08</ele><time>2026-04-22T12:25:31Z</time></trkpt><trkpt lat="59.0922166966" lon="29.9865792040"><ele>77.04</ele><time>2026-04-22T12:25:35Z</time></trkpt><trkpt lat="59.0922201332" lon="29.9866029248"><ele>77.04</ele><time>2026-04-22T12:26:05Z</time></trkpt><trkpt lat="59.0922298562" lon="29.9865923636"><ele>77.04</ele><time>2026-04-22T12:26:32Z</time></trkpt><trkpt lat="59.0922493022" lon="29.9865828920"><ele>77.04</ele><time>2026-04-22T12:27:03Z</time></trkpt><trkpt lat="59.0922581870" lon="29.9865944590"><ele>78.00</ele><time>2026-04-22T12:27:39Z</time></trkpt><trkpt lat="59.0922619589" lon="29.9865781143"><ele>76.56</ele><time>2026-04-22T12:28:08Z</time></trkpt><trkpt lat="59.0922624618" lon="29.9865750130"><ele>78.00</ele><time>2026-04-22T12:28:12Z</time></trkpt><trkpt lat="59.0922632162" lon="29.9865723308"><ele>76.56</ele><time>2026-04-22T12:28:15Z</time></trkpt><trkpt lat="59.0922687482" lon="29.9865620211"><ele>77.52</ele><time>2026-04-22T12:28:40Z</time></trkpt><trkpt lat="59.0922710113" lon="29.9865706544"><ele>77.52</ele><time>2026-04-22T12:29:10Z</time></trkpt><trkpt lat="59.0922660660" lon="29.9865754321"><ele>77.52</ele><time>2026-04-22T12:29:21Z</time></trkpt><trkpt lat="59.0922603663" lon="29.9865811318"><ele>78.48</ele><time>2026-04-22T12:29:34Z</time></trkpt><trkpt lat="59.0922562592" lon="29.9865812156"><ele>77.04</ele><time>2026-04-22T12:29:37Z</time></trkpt><trkpt lat="59.0922544990" lon="29.9865780305"><ele>78.48</ele><time>2026-04-22T12:29:41Z</time></trkpt><trkpt lat="59.0922324546" lon="29.9865784496"><ele>77.04</ele><time>2026-04-22T12:30:09Z</time></trkpt><trkpt lat="59.0922271740" lon="29.9865790363"><ele>78.48</ele><time>2026-04-22T12:30:27Z</time></trkpt><trkpt lat="59.0922240727" lon="29.9865869153"><ele>77.04</ele><time>2026-04-22T12:30:44Z</time></trkpt><trkpt lat="59.0922209714" lon="29.9866015837"><ele>77.04</ele><time>2026-04-22T12:30:55Z</time></trkpt><trkpt lat="59.0922152717" lon="29.9866069481"><ele>77.04</ele><time>2026-04-22T12:31:08Z</time></trkpt><trkpt lat="59.0922167804" lon="29.9866086245"><ele>78.00</ele><time>2026-04-22T12:31:26Z</time></trkpt><trkpt lat="59.0922161937" lon="29.9865897652"><ele>76.56</ele><time>2026-04-22T12:31:36Z</time></trkpt><trkpt lat="59.0922131762" lon="29.9865798745"><ele>76.56</ele><time>2026-04-22T12:31:47Z</time></trkpt><trkpt lat="59.0922116674" lon="29.9865749292"><ele>78.00</ele><time>2026-04-22T12:31:50Z</time></trkpt><trkpt lat="59.0922057163" lon="29.9865689781"><ele>78.48</ele><time>2026-04-22T12:32:04Z</time></trkpt><trkpt lat="59.0922060516" lon="29.9865750968"><ele>77.04</ele><time>2026-04-22T12:32:07Z</time></trkpt><trkpt lat="59.0921971668" lon="29.9865724146"><ele>78.48</ele><time>2026-04-22T12:32:20Z</time></trkpt><trkpt lat="59.0921971668" lon="29.9866042659"><ele>77.52</ele><time>2026-04-22T12:32:44Z</time></trkpt><trkpt lat="59.0921971668" lon="29.9866056908"><ele>77.52</ele><time>2026-04-22T12:32:45Z</time></trkpt><trkpt lat="59.0921936464" lon="29.9866102170"><ele>76.08</ele><time>2026-04-22T12:32:51Z</time></trkpt><trkpt lat="59.0921942331" lon="29.9866100494"><ele>77.52</ele><time>2026-04-22T12:32:55Z</time></trkpt><trkpt lat="59.0922011063" lon="29.9865839817"><ele>76.08</ele><time>2026-04-22T12:33:13Z</time></trkpt><trkpt lat="59.0922080632" lon="29.9866032600"><ele>77.04</ele><time>2026-04-22T12:33:30Z</time></trkpt><trkpt lat="59.0922106616" lon="29.9866116419"><ele>77.04</ele><time>2026-04-22T12:33:31Z</time></trkpt><trkpt lat="59.0922182053" lon="29.9866034277"><ele>78.00</ele><time>2026-04-22T12:33:41Z</time></trkpt><trkpt lat="59.0922136791" lon="29.9865823891"><ele>77.04</ele><time>2026-04-22T12:33:47Z</time></trkpt><trkpt lat="59.0922192950" lon="29.9865963031"><ele>78.97</ele><time>2026-04-22T12:34:01Z</time></trkpt><trkpt lat="59.0922486316" lon="29.9866134021"><ele>78.00</ele><time>2026-04-22T12:34:14Z</time></trkpt><trkpt lat="59.0922532417" lon="29.9866382964"><ele>78.00</ele><time>2026-04-22T12:34:27Z</time></trkpt><trkpt lat="59.0922565944" lon="29.9867023341"><ele>77.04</ele><time>2026-04-22T12:34:35Z</time></trkpt><trkpt lat="59.0922767948" lon="29.9868398812"><ele>78.48</ele><time>2026-04-22T12:34:39Z</time></trkpt><trkpt lat="59.0923376475" lon="29.9872024823"><ele>76.56</ele><time>2026-04-22T12:34:49Z</time></trkpt><trkpt lat="59.0923875198" lon="29.9874617346"><ele>78.97</ele><time>2026-04-22T12:34:59Z</time></trkpt><trkpt lat="59.0924565867" lon="29.9879008625"><ele>77.04</ele><time>2026-04-22T12:35:16Z</time></trkpt><trkpt lat="59.0925048664" lon="29.9881648086"><ele>78.00</ele><time>2026-04-22T12:35:27Z</time></trkpt><trkpt lat="59.0925470274" lon="29.9883582629"><ele>77.04</ele><time>2026-04-22T12:35:36Z</time></trkpt><trkpt lat="59.0926244762" lon="29.9887279049"><ele>78.00</ele><time>2026-04-22T12:35:53Z</time></trkpt><trkpt lat="59.0926307626" lon="29.9887464289"><ele>78.00</ele><time>2026-04-22T12:35:54Z</time></trkpt><trkpt lat="59.0926714987" lon="29.9888198543"><ele>77.04</ele><time>2026-04-22T12:35:58Z</time></trkpt><trkpt lat="59.0927450079" lon="29.9892390333"><ele>78.97</ele><time>2026-04-22T12:36:15Z</time></trkpt><trkpt lat="59.0927644540" lon="29.9893081840"><ele>77.52</ele><time>2026-04-22T12:36:18Z</time></trkpt><trkpt lat="59.0927878395" lon="29.9894226808"><ele>77.52</ele><time>2026-04-22T12:36:23Z</time></trkpt><trkpt lat="59.0927963890" lon="29.9895272870"><ele>77.52</ele><time>2026-04-22T12:36:27Z</time></trkpt><trkpt lat="59.0928020049" lon="29.9895496666"><ele>77.52</ele><time>2026-04-22T12:36:28Z</time></trkpt><trkpt lat="59.0928092971" lon="29.9895743933"><ele>77.52</ele><time>2026-04-22T12:36:29Z</time></trkpt><trkpt lat="59.0928170923" lon="29.9895954318"><ele>77.52</ele><time>2026-04-22T12:36:30Z</time></trkpt><trkpt lat="59.0928259771" lon="29.9896199908"><ele>77.52</ele><time>2026-04-22T12:36:31Z</time></trkpt><trkpt lat="59.0928409807" lon="29.9897058215"><ele>78.48</ele><time>2026-04-22T12:36:34Z</time></trkpt><trkpt lat="59.0929392166" lon="29.9900166225"><ele>78.48</ele><time>2026-04-22T12:36:49Z</time></trkpt><trkpt lat="59.0929567348" lon="29.9901094940"><ele>78.48</ele><time>2026-04-22T12:36:53Z</time></trkpt><trkpt lat="59.0929584112" lon="29.9901368190"><ele>78.48</ele><time>2026-04-22T12:36:54Z</time></trkpt><trkpt lat="59.0929632727" lon="29.9901593663"><ele>78.48</ele><time>2026-04-22T12:36:55Z</time></trkpt><trkpt lat="59.0929672960" lon="29.9901813269"><ele>78.48</ele><time>2026-04-22T12:36:56Z</time></trkpt><trkpt lat="59.0929725766" lon="29.9902019463"><ele>78.48</ele><time>2026-04-22T12:36:57Z</time></trkpt><trkpt lat="59.0930239577" lon="29.9904050399"><ele>78.48</ele><time>2026-04-22T12:37:06Z</time></trkpt><trkpt lat="59.0930271428" lon="29.9904409982"><ele>78.48</ele><time>2026-04-22T12:37:07Z</time></trkpt><trkpt lat="59.0930289868" lon="29.9904734362"><ele>77.52</ele><time>2026-04-22T12:37:08Z</time></trkpt><trkpt lat="59.0930315852" lon="29.9905069638"><ele>77.52</ele><time>2026-04-22T12:37:09Z</time></trkpt><trkpt lat="59.0930602513" lon="29.9910398014"><ele>77.52</ele><time>2026-04-22T12:37:25Z</time></trkpt><trkpt lat="59.0931199305" lon="29.9914125446"><ele>77.04</ele><time>2026-04-22T12:37:39Z</time></trkpt><trkpt lat="59.0932207648" lon="29.9918188993"><ele>77.04</ele><time>2026-04-22T12:37:56Z</time></trkpt><trkpt lat="59.0932183340" lon="29.9918988626"><ele>77.04</ele><time>2026-04-22T12:37:58Z</time></trkpt><trkpt lat="59.0932890773" lon="29.9923032057"><ele>78.00</ele><time>2026-04-22T12:38:12Z</time></trkpt><trkpt lat="59.0933484212" lon="29.9928265717"><ele>76.56</ele><time>2026-04-22T12:38:31Z</time></trkpt><trkpt lat="59.0933640115" lon="29.9929814693"><ele>77.52</ele><time>2026-04-22T12:38:37Z</time></trkpt><trkpt lat="59.0934096929" lon="29.9931857362"><ele>78.48</ele><time>2026-04-22T12:38:47Z</time></trkpt><trkpt lat="59.0934099443" lon="29.9931947887"><ele>78.48</ele><time>2026-04-22T12:38:51Z</time></trkpt><trkpt lat="59.0934148896" lon="29.9932185933"><ele>78.48</ele><time>2026-04-22T12:38:52Z</time></trkpt><trkpt lat="59.0934272949" lon="29.9932747521"><ele>79.93</ele><time>2026-04-22T12:38:54Z</time></trkpt><trkpt lat="59.0934334137" lon="29.9933021609"><ele>79.93</ele><time>2026-04-22T12:38:55Z</time></trkpt><trkpt lat="59.0934835374" lon="29.9934456591"><ele>77.04</ele><time>2026-04-22T12:39:01Z</time></trkpt><trkpt lat="59.0934936795" lon="29.9934659433"><ele>76.56</ele><time>2026-04-22T12:39:02Z</time></trkpt><trkpt lat="59.0935012233" lon="29.9934919272"><ele>76.56</ele><time>2026-04-22T12:39:03Z</time></trkpt><trkpt lat="59.0935093537" lon="29.9935174920"><ele>76.56</ele><time>2026-04-22T12:39:04Z</time></trkpt><trkpt lat="59.0935457312" lon="29.9936625827"><ele>78.48</ele><time>2026-04-22T12:39:10Z</time></trkpt><trkpt lat="59.0935817733" lon="29.9937763251"><ele>76.56</ele><time>2026-04-22T12:39:15Z</time></trkpt><trkpt lat="59.0935842041" lon="29.9938019738"><ele>76.56</ele><time>2026-04-22T12:39:16Z</time></trkpt><trkpt lat="59.0935880598" lon="29.9938312266"><ele>76.56</ele><time>2026-04-22T12:39:17Z</time></trkpt><trkpt lat="59.0935940109" lon="29.9938557856"><ele>76.56</ele><time>2026-04-22T12:39:18Z</time></trkpt><trkpt lat="59.0935995430" lon="29.9938809313"><ele>76.56</ele><time>2026-04-22T12:39:19Z</time></trkpt><trkpt lat="59.0936676040" lon="29.9941842724"><ele>75.60</ele><time>2026-04-22T12:39:35Z</time></trkpt><trkpt lat="59.0936771594" lon="29.9942257628"><ele>77.04</ele><time>2026-04-22T12:39:38Z</time></trkpt><trkpt lat="59.0936774947" lon="29.9942488968"><ele>77.04</ele><time>2026-04-22T12:39:39Z</time></trkpt><trkpt lat="59.0936456434" lon="29.9944151100"><ele>77.04</ele><time>2026-04-22T12:39:47Z</time></trkpt><trkpt lat="59.0936471522" lon="29.9944581930"><ele>77.52</ele><time>2026-04-22T12:39:49Z</time></trkpt><trkpt lat="59.0936480742" lon="29.9944855180"><ele>78.00</ele><time>2026-04-22T12:39:50Z</time></trkpt><trkpt lat="59.0936509240" lon="29.9945159443"><ele>78.00</ele><time>2026-04-22T12:39:51Z</time></trkpt><trkpt lat="59.0936536063" lon="29.9945411738"><ele>78.00</ele><time>2026-04-22T12:39:52Z</time></trkpt><trkpt lat="59.0936743934" lon="29.9946478754"><ele>76.56</ele><time>2026-04-22T12:39:57Z</time></trkpt><trkpt lat="59.0936787520" lon="29.9946757872"><ele>76.56</ele><time>2026-04-22T12:39:58Z</time></trkpt><trkpt lat="59.0937233437" lon="29.9949020986"><ele>76.56</ele><time>2026-04-22T12:40:11Z</time></trkpt><trkpt lat="59.0937372576" lon="29.9950454291"><ele>77.52</ele><time>2026-04-22T12:40:26Z</time></trkpt><trkpt lat="59.0937572904" lon="29.9950530566"><ele>76.08</ele><time>2026-04-22T12:40:43Z</time></trkpt><trkpt lat="59.0937626548" lon="29.9950708263"><ele>76.08</ele><time>2026-04-22T12:40:44Z</time></trkpt><trkpt lat="59.0937687736" lon="29.9950928707"><ele>76.08</ele><time>2026-04-22T12:40:45Z</time></trkpt><trkpt lat="59.0937749762" lon="29.9951146636"><ele>76.08</ele><time>2026-04-22T12:40:46Z</time></trkpt><trkpt lat="59.0937918238" lon="29.9951631110"><ele>76.08</ele><time>2026-04-22T12:40:48Z</time></trkpt><trkpt lat="59.0937957633" lon="29.9951913580"><ele>76.08</ele><time>2026-04-22T12:40:49Z</time></trkpt><trkpt lat="59.0937997866" lon="29.9952196050"><ele>76.08</ele><time>2026-04-22T12:40:50Z</time></trkpt><trkpt lat="59.0938061569" lon="29.9952447508"><ele>76.08</ele><time>2026-04-22T12:40:51Z</time></trkpt><trkpt lat="59.0938111022" lon="29.9952728301"><ele>76.08</ele><time>2026-04-22T12:40:52Z</time></trkpt><trkpt lat="59.0938169695" lon="29.9953003228"><ele>76.08</ele><time>2026-04-22T12:40:53Z</time></trkpt><trkpt lat="59.0938616451" lon="29.9955748301"><ele>76.08</ele><time>2026-04-22T12:41:04Z</time></trkpt><trkpt lat="59.0938691050" lon="29.9955997244"><ele>76.08</ele><time>2026-04-22T12:41:05Z</time></trkpt><trkpt lat="59.0938824322" lon="29.9956526142"><ele>76.08</ele><time>2026-04-22T12:41:07Z</time></trkpt><trkpt lat="59.0938876290" lon="29.9956801068"><ele>76.08</ele><time>2026-04-22T12:41:08Z</time></trkpt><trkpt lat="59.0939022973" lon="29.9957838748"><ele>76.08</ele><time>2026-04-22T12:41:12Z</time></trkpt><trkpt lat="59.0939122718" lon="29.9958029017"><ele>76.08</ele><time>2026-04-22T12:41:13Z</time></trkpt><trkpt lat="59.0939192288" lon="29.9958296400"><ele>76.08</ele><time>2026-04-22T12:41:14Z</time></trkpt><trkpt lat="59.0939250961" lon="29.9958588090"><ele>76.08</ele><time>2026-04-22T12:41:15Z</time></trkpt><trkpt lat="59.0939317178" lon="29.9958872236"><ele>76.08</ele><time>2026-04-22T12:41:16Z</time></trkpt><trkpt lat="59.0939389262" lon="29.9959138781"><ele>76.08</ele><time>2026-04-22T12:41:17Z</time></trkpt><trkpt lat="59.0939693525" lon="29.9960386008"><ele>76.08</ele><time>2026-04-22T12:41:22Z</time></trkpt><trkpt lat="59.0940549318" lon="29.9964542594"><ele>76.08</ele><time>2026-04-22T12:41:37Z</time></trkpt><trkpt lat="59.0941102523" lon="29.9968294334"><ele>76.08</ele><time>2026-04-22T12:41:50Z</time></trkpt><trkpt lat="59.0941236634" lon="29.9969114084"><ele>76.08</ele><time>2026-04-22T12:41:53Z</time></trkpt><trkpt lat="59.0941271000" lon="29.9969461933"><ele>76.08</ele><time>2026-04-22T12:41:54Z</time></trkpt><trkpt lat="59.0942003578" lon="29.9973073695"><ele>76.56</ele><time>2026-04-22T12:42:07Z</time></trkpt><trkpt lat="59.0942753758" lon="29.9975561444"><ele>77.04</ele><time>2026-04-22T12:42:18Z</time></trkpt><trkpt lat="59.0942909662" lon="29.9976229481"><ele>77.04</ele><time>2026-04-22T12:42:21Z</time></trkpt><trkpt lat="59.0943383239" lon="29.9980748165"><ele>75.60</ele><time>2026-04-22T12:42:36Z</time></trkpt><trkpt lat="59.0943868551" lon="29.9983736314"><ele>75.12</ele><time>2026-04-22T12:42:47Z</time></trkpt><trkpt lat="59.0943938121" lon="29.9984922353"><ele>76.08</ele><time>2026-04-22T12:42:51Z</time></trkpt><trkpt lat="59.0944449417" lon="29.9988700915"><ele>76.08</ele><time>2026-04-22T12:43:07Z</time></trkpt><trkpt lat="59.0944503900" lon="29.9988939799"><ele>76.08</ele><time>2026-04-22T12:43:08Z</time></trkpt><trkpt lat="59.0944587719" lon="29.9989168625"><ele>76.08</ele><time>2026-04-22T12:43:09Z</time></trkpt><trkpt lat="59.0944669861" lon="29.9989368953"><ele>76.08</ele><time>2026-04-22T12:43:10Z</time></trkpt><trkpt lat="59.0945430938" lon="29.9991679844"><ele>76.56</ele><time>2026-04-22T12:43:21Z</time></trkpt><trkpt lat="59.0945482906" lon="29.9991902802"><ele>76.56</ele><time>2026-04-22T12:43:22Z</time></trkpt><trkpt lat="59.0945497993" lon="29.9992176052"><ele>77.04</ele><time>2026-04-22T12:43:23Z</time></trkpt><trkpt lat="59.0945576783" lon="29.9992887676"><ele>77.04</ele><time>2026-04-22T12:43:26Z</time></trkpt><trkpt lat="59.0945623722" lon="29.9993141647"><ele>77.04</ele><time>2026-04-22T12:43:27Z</time></trkpt><trkpt lat="59.0945677366" lon="29.9993361253"><ele>77.04</ele><time>2026-04-22T12:43:28Z</time></trkpt><trkpt lat="59.0945702512" lon="29.9993699882"><ele>77.04</ele><time>2026-04-22T12:43:29Z</time></trkpt><trkpt lat="59.0945732687" lon="29.9993979838"><ele>77.04</ele><time>2026-04-22T12:43:30Z</time></trkpt><trkpt lat="59.0945764538" lon="29.9994289130"><ele>77.04</ele><time>2026-04-22T12:43:31Z</time></trkpt><trkpt lat="59.0945822373" lon="29.9994564895"><ele>77.04</ele><time>2026-04-22T12:43:32Z</time></trkpt><trkpt lat="59.0945910383" lon="29.9995103851"><ele>76.08</ele><time>2026-04-22T12:43:34Z</time></trkpt><trkpt lat="59.0945990849" lon="29.9995616823"><ele>76.08</ele><time>2026-04-22T12:43:36Z</time></trkpt><trkpt lat="59.0946414135" lon="30.0000418816"><ele>76.08</ele><time>2026-04-22T12:43:52Z</time></trkpt><trkpt lat="59.0946433414" lon="30.0000758283"><ele>76.08</ele><time>2026-04-22T12:43:53Z</time></trkpt><trkpt lat="59.0946481191" lon="30.0001065060"><ele>76.08</ele><time>2026-04-22T12:43:54Z</time></trkpt><trkpt lat="59.0946551599" lon="30.0001374353"><ele>76.08</ele><time>2026-04-22T12:43:55Z</time></trkpt><trkpt lat="59.0946585964" lon="30.0001750700"><ele>76.08</ele><time>2026-04-22T12:43:56Z</time></trkpt><trkpt lat="59.0947418287" lon="30.0005082507"><ele>75.12</ele><time>2026-04-22T12:44:10Z</time></trkpt><trkpt lat="59.0948025137" lon="30.0007604621"><ele>74.64</ele><time>2026-04-22T12:44:20Z</time></trkpt><trkpt lat="59.0948566608" lon="30.0010689162"><ele>75.60</ele><time>2026-04-22T12:44:34Z</time></trkpt><trkpt lat="59.0948561579" lon="30.0010950677"><ele>75.60</ele><time>2026-04-22T12:44:35Z</time></trkpt><trkpt lat="59.0948593430" lon="30.0011173636"><ele>75.60</ele><time>2026-04-22T12:44:36Z</time></trkpt><trkpt lat="59.0948643722" lon="30.0011652242"><ele>75.60</ele><time>2026-04-22T12:44:38Z</time></trkpt><trkpt lat="59.0948763583" lon="30.0012099836"><ele>75.60</ele><time>2026-04-22T12:44:40Z</time></trkpt><trkpt lat="59.0948927030" lon="30.0013174396"><ele>75.60</ele><time>2026-04-22T12:44:44Z</time></trkpt><trkpt lat="59.0949047729" lon="30.0013666414"><ele>75.60</ele><time>2026-04-22T12:44:46Z</time></trkpt><trkpt lat="59.0949112270" lon="30.0014220458"><ele>75.60</ele><time>2026-04-22T12:44:48Z</time></trkpt><trkpt lat="59.0949179325" lon="30.0014441740"><ele>75.60</ele><time>2026-04-22T12:44:49Z</time></trkpt><trkpt lat="59.0949203633" lon="30.0014809705"><ele>75.60</ele><time>2026-04-22T12:44:50Z</time></trkpt><trkpt lat="59.0949251410" lon="30.0015051104"><ele>75.60</ele><time>2026-04-22T12:44:51Z</time></trkpt><trkpt lat="59.0949311759" lon="30.0015277416"><ele>75.60</ele><time>2026-04-22T12:44:52Z</time></trkpt><trkpt lat="59.0949379653" lon="30.0015553180"><ele>75.60</ele><time>2026-04-22T12:44:53Z</time></trkpt><trkpt lat="59.0950033441" lon="30.0017512031"><ele>74.16</ele><time>2026-04-22T12:45:02Z</time></trkpt><trkpt lat="59.0950792842" lon="30.0022206735"><ele>74.16</ele><time>2026-04-22T12:45:19Z</time></trkpt><trkpt lat="59.0950991493" lon="30.0025079213"><ele>74.16</ele><time>2026-04-22T12:45:29Z</time></trkpt><trkpt lat="59.0951002389" lon="30.0025403593"><ele>74.16</ele><time>2026-04-22T12:45:30Z</time></trkpt><trkpt lat="59.0951008257" lon="30.0025701150"><ele>74.16</ele><time>2026-04-22T12:45:31Z</time></trkpt><trkpt lat="59.0950958803" lon="30.0026118569"><ele>74.16</ele><time>2026-04-22T12:45:32Z</time></trkpt><trkpt lat="59.0950940363" lon="30.0026484858"><ele>74.16</ele><time>2026-04-22T12:45:33Z</time></trkpt><trkpt lat="59.0951003227" lon="30.0026717037"><ele>74.16</ele><time>2026-04-22T12:45:34Z</time></trkpt><trkpt lat="59.0951045975" lon="30.0026999507"><ele>74.16</ele><time>2026-04-22T12:45:35Z</time></trkpt><trkpt lat="59.0951070283" lon="30.0027344842"><ele>74.16</ele><time>2026-04-22T12:45:36Z</time></trkpt><trkpt lat="59.0951113869" lon="30.0027685147"><ele>74.16</ele><time>2026-04-22T12:45:37Z</time></trkpt><trkpt lat="59.0951162484" lon="30.0027947500"><ele>74.16</ele><time>2026-04-22T12:45:38Z</time></trkpt><trkpt lat="59.0951206908" lon="30.0028237514"><ele>74.16</ele><time>2026-04-22T12:45:39Z</time></trkpt><trkpt lat="59.0951278154" lon="30.0028460473"><ele>74.16</ele><time>2026-04-22T12:45:40Z</time></trkpt><trkpt lat="59.0951350238" lon="30.0028708577"><ele>74.16</ele><time>2026-04-22T12:45:41Z</time></trkpt><trkpt lat="59.0951414779" lon="30.0028947461"><ele>74.16</ele><time>2026-04-22T12:45:42Z</time></trkpt><trkpt lat="59.0951480158" lon="30.0029184669"><ele>74.16</ele><time>2026-04-22T12:45:43Z</time></trkpt><trkpt lat="59.0952138137" lon="30.0033327844"><ele>75.12</ele><time>2026-04-22T12:45:59Z</time></trkpt><trkpt lat="59.0952159930" lon="30.0033845846"><ele>73.68</ele><time>2026-04-22T12:46:01Z</time></trkpt><trkpt lat="59.0952675417" lon="30.0035967305"><ele>73.68</ele><time>2026-04-22T12:46:14Z</time></trkpt><trkpt lat="59.0953123011" lon="30.0037942920"><ele>73.20</ele><time>2026-04-22T12:46:28Z</time></trkpt><trkpt lat="59.0953093674" lon="30.0039126445"><ele>73.20</ele><time>2026-04-22T12:46:41Z</time></trkpt><trkpt lat="59.0953171626" lon="30.0039337669"><ele>73.20</ele><time>2026-04-22T12:46:42Z</time></trkpt><trkpt lat="59.0953268856" lon="30.0039573200"><ele>73.20</ele><time>2026-04-22T12:46:43Z</time></trkpt><trkpt lat="59.0953338426" lon="30.0039833877"><ele>73.20</ele><time>2026-04-22T12:46:44Z</time></trkpt><trkpt lat="59.0953407157" lon="30.0040107965"><ele>73.20</ele><time>2026-04-22T12:46:45Z</time></trkpt><trkpt lat="59.0953500196" lon="30.0040352717"><ele>74.16</ele><time>2026-04-22T12:46:46Z</time></trkpt><trkpt lat="59.0953594074" lon="30.0040582381"><ele>74.16</ele><time>2026-04-22T12:46:47Z</time></trkpt><trkpt lat="59.0953668673" lon="30.0040824618"><ele>74.16</ele><time>2026-04-22T12:46:48Z</time></trkpt><trkpt lat="59.0953721479" lon="30.0041037519"><ele>74.16</ele><time>2026-04-22T12:46:49Z</time></trkpt><trkpt lat="59.0953738242" lon="30.0041273050"><ele>74.16</ele><time>2026-04-22T12:46:50Z</time></trkpt><trkpt lat="59.0954330843" lon="30.0045627449"><ele>75.12</ele><time>2026-04-22T12:47:06Z</time></trkpt><trkpt lat="59.0955320746" lon="30.0049802475"><ele>74.16</ele><time>2026-04-22T12:47:23Z</time></trkpt><trkpt lat="59.0956055839" lon="30.0054062158"><ele>75.12</ele><time>2026-04-22T12:47:39Z</time></trkpt><trkpt lat="59.0956153069" lon="30.0054247398"><ele>75.12</ele><time>2026-04-22T12:47:40Z</time></trkpt><trkpt lat="59.0956225153" lon="30.0054467004"><ele>75.12</ele><time>2026-04-22T12:47:41Z</time></trkpt><trkpt lat="59.0956302267" lon="30.0054665655"><ele>75.12</ele><time>2026-04-22T12:47:42Z</time></trkpt><trkpt lat="59.0956402011" lon="30.0054863468"><ele>75.12</ele><time>2026-04-22T12:47:43Z</time></trkpt><trkpt lat="59.0956460685" lon="30.0055124983"><ele>75.12</ele><time>2026-04-22T12:47:44Z</time></trkpt><trkpt lat="59.0956491698" lon="30.0055399910"><ele>75.12</ele><time>2026-04-22T12:47:45Z</time></trkpt><trkpt lat="59.0956536122" lon="30.0055692438"><ele>75.12</ele><time>2026-04-22T12:47:46Z</time></trkpt><trkpt lat="59.0956953540" lon="30.0059060287"><ele>75.60</ele><time>2026-04-22T12:47:59Z</time></trkpt><trkpt lat="59.0957013052" lon="30.0059285760"><ele>75.60</ele><time>2026-04-22T12:48:00Z</time></trkpt><trkpt lat="59.0957377665" lon="30.0060530473"><ele>74.16</ele><time>2026-04-22T12:48:06Z</time></trkpt><trkpt lat="59.0957448911" lon="30.0062962901"><ele>74.16</ele><time>2026-04-22T12:48:14Z</time></trkpt><trkpt lat="59.0957513452" lon="30.0063169934"><ele>74.16</ele><time>2026-04-22T12:48:15Z</time></trkpt><trkpt lat="59.0957604814" lon="30.0063682906"><ele>75.60</ele><time>2026-04-22T12:48:17Z</time></trkpt><trkpt lat="59.0957754012" lon="30.0064073503"><ele>75.60</ele><time>2026-04-22T12:48:19Z</time></trkpt><trkpt lat="59.0957856271" lon="30.0064252038"><ele>75.60</ele><time>2026-04-22T12:48:20Z</time></trkpt><trkpt lat="59.0957976971" lon="30.0064433087"><ele>75.60</ele><time>2026-04-22T12:48:21Z</time></trkpt><trkpt lat="59.0958095994" lon="30.0064623356"><ele>75.60</ele><time>2026-04-22T12:48:22Z</time></trkpt><trkpt lat="59.0958185680" lon="30.0064849667"><ele>75.60</ele><time>2026-04-22T12:48:23Z</time></trkpt><trkpt lat="59.0958280396" lon="30.0065029878"><ele>75.60</ele><time>2026-04-22T12:48:24Z</time></trkpt><trkpt lat="59.0958791692" lon="30.0067213364"><ele>74.16</ele><time>2026-04-22T12:48:35Z</time></trkpt><trkpt lat="59.0958914906" lon="30.0067605637"><ele>74.16</ele><time>2026-04-22T12:48:37Z</time></trkpt><trkpt lat="59.0958975255" lon="30.0067831948"><ele>74.16</ele><time>2026-04-22T12:48:38Z</time></trkpt><trkpt lat="59.0959026385" lon="30.0068068318"><ele>74.16</ele><time>2026-04-22T12:48:39Z</time></trkpt><trkpt lat="59.0959068295" lon="30.0068333186"><ele>74.16</ele><time>2026-04-22T12:48:40Z</time></trkpt><trkpt lat="59.0959097631" lon="30.0068636611"><ele>74.16</ele><time>2026-04-22T12:48:41Z</time></trkpt><trkpt lat="59.0959108528" lon="30.0069060735"><ele>74.16</ele><time>2026-04-22T12:48:42Z</time></trkpt><trkpt lat="59.0959126130" lon="30.0069384277"><ele>74.16</ele><time>2026-04-22T12:48:43Z</time></trkpt><trkpt lat="59.0959717054" lon="30.0073202234"><ele>75.60</ele><time>2026-04-22T12:48:58Z</time></trkpt><trkpt lat="59.0959732141" lon="30.0073471293"><ele>75.60</ele><time>2026-04-22T12:48:59Z</time></trkpt><trkpt lat="59.0959755611" lon="30.0073736999"><ele>75.60</ele><time>2026-04-22T12:49:00Z</time></trkpt><trkpt lat="59.0959753096" lon="30.0074058026"><ele>75.60</ele><time>2026-04-22T12:49:01Z</time></trkpt><trkpt lat="59.0959747229" lon="30.0074445270"><ele>75.60</ele><time>2026-04-22T12:49:02Z</time></trkpt><trkpt lat="59.0959792491" lon="30.0074732769"><ele>75.60</ele><time>2026-04-22T12:49:03Z</time></trkpt><trkpt lat="59.0959925763" lon="30.0075851753"><ele>74.64</ele><time>2026-04-22T12:49:07Z</time></trkpt><trkpt lat="59.0959996171" lon="30.0076068006"><ele>74.64</ele><time>2026-04-22T12:49:08Z</time></trkpt><trkpt lat="59.0960068256" lon="30.0076291803"><ele>74.64</ele><time>2026-04-22T12:49:09Z</time></trkpt><trkpt lat="59.0960127767" lon="30.0076552480"><ele>74.64</ele><time>2026-04-22T12:49:10Z</time></trkpt><trkpt lat="59.0960188117" lon="30.0076827407"><ele>74.64</ele><time>2026-04-22T12:49:11Z</time></trkpt><trkpt lat="59.0960239246" lon="30.0077140052"><ele>74.64</ele><time>2026-04-22T12:49:12Z</time></trkpt><trkpt lat="59.0960302949" lon="30.0077458564"><ele>74.64</ele><time>2026-04-22T12:49:13Z</time></trkpt><trkpt lat="59.0960340668" lon="30.0077722594"><ele>74.64</ele><time>2026-04-22T12:49:14Z</time></trkpt><trkpt lat="59.0960359108" lon="30.0077981595"><ele>74.16</ele><time>2026-04-22T12:49:15Z</time></trkpt><trkpt lat="59.0960437898" lon="30.0078130793"><ele>74.16</ele><time>2026-04-22T12:49:16Z</time></trkpt><trkpt lat="59.0960445441" lon="30.0078451820"><ele>74.16</ele><time>2026-04-22T12:49:17Z</time></trkpt><trkpt lat="59.0960887168" lon="30.0083759241"><ele>74.16</ele><time>2026-04-22T12:49:34Z</time></trkpt><trkpt lat="59.0961022116" lon="30.0084521156"><ele>74.16</ele><time>2026-04-22T12:49:37Z</time></trkpt><trkpt lat="59.0962032974" lon="30.0087561272"><ele>74.16</ele><time>2026-04-22T12:49:52Z</time></trkpt><trkpt lat="59.0962412674" lon="30.0089342427"><ele>75.12</ele><time>2026-04-22T12:50:00Z</time></trkpt><trkpt lat="59.0962451231" lon="30.0089587178"><ele>75.12</ele><time>2026-04-22T12:50:01Z</time></trkpt><trkpt lat="59.0962511580" lon="30.0089855399"><ele>75.12</ele><time>2026-04-22T12:50:02Z</time></trkpt><trkpt lat="59.0962576121" lon="30.0090129487"><ele>75.12</ele><time>2026-04-22T12:50:03Z</time></trkpt><trkpt lat="59.0962633956" lon="30.0090441294"><ele>74.16</ele><time>2026-04-22T12:50:04Z</time></trkpt><trkpt lat="59.0963686723" lon="30.0095046312"><ele>74.16</ele><time>2026-04-22T12:50:22Z</time></trkpt><trkpt lat="59.0964757092" lon="30.0099149253"><ele>73.68</ele><time>2026-04-22T12:50:40Z</time></trkpt><trkpt lat="59.0965358913" lon="30.0104766805"><ele>74.16</ele><time>2026-04-22T12:51:00Z</time></trkpt><trkpt lat="59.0965820756" lon="30.0109437201"><ele>74.64</ele><time>2026-04-22T12:51:16Z</time></trkpt><trkpt lat="59.0966443531" lon="30.0114178844"><ele>74.64</ele><time>2026-04-22T12:51:34Z</time></trkpt><trkpt lat="59.0966860112" lon="30.0117529090"><ele>73.20</ele><time>2026-04-22T12:51:47Z</time></trkpt><trkpt lat="59.0967459418" lon="30.0119384844"><ele>73.20</ele><time>2026-04-22T12:51:56Z</time></trkpt><trkpt lat="59.0967489593" lon="30.0119609479"><ele>73.20</ele><time>2026-04-22T12:51:57Z</time></trkpt><trkpt lat="59.0967532340" lon="30.0119807292"><ele>73.20</ele><time>2026-04-22T12:51:58Z</time></trkpt><trkpt lat="59.0968295094" lon="30.0123492815"><ele>73.20</ele><time>2026-04-22T12:52:13Z</time></trkpt><trkpt lat="59.0969140828" lon="30.0128191710"><ele>72.72</ele><time>2026-04-22T12:52:31Z</time></trkpt><trkpt lat="59.0969517175" lon="30.0130450632"><ele>72.24</ele><time>2026-04-22T12:52:40Z</time></trkpt><trkpt lat="59.0969577525" lon="30.0130739808"><ele>72.24</ele><time>2026-04-22T12:52:41Z</time></trkpt><trkpt lat="59.0969630331" lon="30.0131427962"><ele>72.24</ele><time>2026-04-22T12:52:43Z</time></trkpt><trkpt lat="59.0969694033" lon="30.0131643377"><ele>72.24</ele><time>2026-04-22T12:52:44Z</time></trkpt><trkpt lat="59.0969761927" lon="30.0131804310"><ele>72.24</ele><time>2026-04-22T12:52:45Z</time></trkpt><trkpt lat="59.0969807189" lon="30.0131999608"><ele>72.24</ele><time>2026-04-22T12:52:46Z</time></trkpt><trkpt lat="59.0969852451" lon="30.0132202450"><ele>72.24</ele><time>2026-04-22T12:52:47Z</time></trkpt><trkpt lat="59.0969961416" lon="30.0133285392"><ele>72.24</ele><time>2026-04-22T12:52:52Z</time></trkpt><trkpt lat="59.0969990753" lon="30.0133516733"><ele>72.24</ele><time>2026-04-22T12:52:53Z</time></trkpt><trkpt lat="59.0970041044" lon="30.0133755617"><ele>72.24</ele><time>2026-04-22T12:52:54Z</time></trkpt><trkpt lat="59.0970104747" lon="30.0133955106"><ele>72.24</ele><time>2026-04-22T12:52:55Z</time></trkpt><trkpt lat="59.0970175155" lon="30.0134114362"><ele>72.24</ele><time>2026-04-22T12:52:56Z</time></trkpt><trkpt lat="59.0970658790" lon="30.0136974268"><ele>71.76</ele><time>2026-04-22T12:53:09Z</time></trkpt><trkpt lat="59.0971189365" lon="30.0140694994"><ele>71.27</ele><time>2026-04-22T12:53:24Z</time></trkpt><trkpt lat="59.0971224569" lon="30.0141000934"><ele>71.27</ele><time>2026-04-22T12:53:25Z</time></trkpt><trkpt lat="59.0971255582" lon="30.0141292624"><ele>71.27</ele><time>2026-04-22T12:53:26Z</time></trkpt><trkpt lat="59.0971553978" lon="30.0142760295"><ele>71.27</ele><time>2026-04-22T12:53:33Z</time></trkpt><trkpt lat="59.0971881710" lon="30.0143937953"><ele>71.27</ele><time>2026-04-22T12:53:38Z</time></trkpt><trkpt lat="59.0971995704" lon="30.0144304242"><ele>71.27</ele><time>2026-04-22T12:53:40Z</time></trkpt><trkpt lat="59.0972109698" lon="30.0144687295"><ele>71.27</ele><time>2026-04-22T12:53:42Z</time></trkpt><trkpt lat="59.0972143225" lon="30.0144937914"><ele>71.27</ele><time>2026-04-22T12:53:43Z</time></trkpt><trkpt lat="59.0972201061" lon="30.0145138241"><ele>71.27</ele><time>2026-04-22T12:53:44Z</time></trkpt><trkpt lat="59.0972833056" lon="30.0148842204"><ele>71.27</ele><time>2026-04-22T12:54:00Z</time></trkpt><trkpt lat="59.0972809587" lon="30.0149131380"><ele>71.27</ele><time>2026-04-22T12:54:01Z</time></trkpt><trkpt lat="59.0973216109" lon="30.0152482465"><ele>71.27</ele><time>2026-04-22T12:54:16Z</time></trkpt><trkpt lat="59.0974022448" lon="30.0154743064"><ele>69.83</ele><time>2026-04-22T12:54:28Z</time></trkpt><trkpt lat="59.0974125545" lon="30.0154932495"><ele>69.83</ele><time>2026-04-22T12:54:29Z</time></trkpt><trkpt lat="59.0974143986" lon="30.0155355781"><ele>69.83</ele><time>2026-04-22T12:54:30Z</time></trkpt><trkpt lat="59.0974272229" lon="30.0156725384"><ele>70.79</ele><time>2026-04-22T12:54:35Z</time></trkpt><trkpt lat="59.0974516980" lon="30.0157628115"><ele>70.79</ele><time>2026-04-22T12:54:39Z</time></trkpt><trkpt lat="59.0974542964" lon="30.0157911424"><ele>70.79</ele><time>2026-04-22T12:54:40Z</time></trkpt><trkpt lat="59.0974518657" lon="30.0158208981"><ele>70.79</ele><time>2026-04-22T12:54:41Z</time></trkpt><trkpt lat="59.0974514466" lon="30.0158513244"><ele>70.79</ele><time>2026-04-22T12:54:42Z</time></trkpt><trkpt lat="59.0974520333" lon="30.0158803258"><ele>70.79</ele><time>2026-04-22T12:54:43Z</time></trkpt><trkpt lat="59.0974535421" lon="30.0159080699"><ele>70.79</ele><time>2026-04-22T12:54:44Z</time></trkpt><trkpt lat="59.0974559728" lon="30.0159338024"><ele>70.79</ele><time>2026-04-22T12:54:45Z</time></trkpt><trkpt lat="59.0974573139" lon="30.0159658212"><ele>70.79</ele><time>2026-04-22T12:54:46Z</time></trkpt><trkpt lat="59.0974599961" lon="30.0159927271"><ele>71.27</ele><time>2026-04-22T12:54:47Z</time></trkpt><trkpt lat="59.0974620078" lon="30.0160228182"><ele>71.76</ele><time>2026-04-22T12:54:48Z</time></trkpt><trkpt lat="59.0974666178" lon="30.0160520710"><ele>71.76</ele><time>2026-04-22T12:54:49Z</time></trkpt><trkpt lat="59.0974725690" lon="30.0160774682"><ele>71.76</ele><time>2026-04-22T12:54:50Z</time></trkpt><trkpt lat="59.0974791069" lon="30.0160987582"><ele>71.76</ele><time>2026-04-22T12:54:51Z</time></trkpt><trkpt lat="59.0974861477" lon="30.0161188748"><ele>71.76</ele><time>2026-04-22T12:54:52Z</time></trkpt><trkpt lat="59.0975539573" lon="30.0163934659"><ele>69.35</ele><time>2026-04-22T12:55:05Z</time></trkpt><trkpt lat="59.0975686256" lon="30.0165156741"><ele>70.79</ele><time>2026-04-22T12:55:10Z</time></trkpt><trkpt lat="59.0975746606" lon="30.0165407360"><ele>70.79</ele><time>2026-04-22T12:55:11Z</time></trkpt><trkpt lat="59.0975790191" lon="30.0165663008"><ele>70.79</ele><time>2026-04-22T12:55:12Z</time></trkpt><trkpt lat="59.0976527799" lon="30.0169443246"><ele>69.83</ele><time>2026-04-22T12:55:28Z</time></trkpt><trkpt lat="59.0976588149" lon="30.0169640221"><ele>69.83</ele><time>2026-04-22T12:55:29Z</time></trkpt><trkpt lat="59.0976645146" lon="30.0169845577"><ele>69.83</ele><time>2026-04-22T12:55:30Z</time></trkpt><trkpt lat="59.0976708848" lon="30.0170073565"><ele>69.83</ele><time>2026-04-22T12:55:31Z</time></trkpt><trkpt lat="59.0976771712" lon="30.0170300715"><ele>69.83</ele><time>2026-04-22T12:55:32Z</time></trkpt><trkpt lat="59.0976853017" lon="30.0170528702"><ele>69.83</ele><time>2026-04-22T12:55:33Z</time></trkpt><trkpt lat="59.0976897441" lon="30.0170786865"><ele>69.83</ele><time>2026-04-22T12:55:34Z</time></trkpt><trkpt lat="59.0977082681" lon="30.0172056723"><ele>71.27</ele><time>2026-04-22T12:55:39Z</time></trkpt><trkpt lat="59.0977079328" lon="30.0172360148"><ele>71.27</ele><time>2026-04-22T12:55:40Z</time></trkpt><trkpt lat="59.0977060050" lon="30.0172958616"><ele>71.27</ele><time>2026-04-22T12:55:42Z</time></trkpt><trkpt lat="59.0977032389" lon="30.0173860509"><ele>71.27</ele><time>2026-04-22T12:55:45Z</time></trkpt><trkpt lat="59.0977101959" lon="30.0174358394"><ele>71.27</ele><time>2026-04-22T12:55:47Z</time></trkpt><trkpt lat="59.0977182426" lon="30.0174604822"><ele>71.27</ele><time>2026-04-22T12:55:48Z</time></trkpt><trkpt lat="59.0978264529" lon="30.0178531744"><ele>71.27</ele><time>2026-04-22T12:56:05Z</time></trkpt><trkpt lat="59.0978370979" lon="30.0180138554"><ele>71.27</ele><time>2026-04-22T12:56:11Z</time></trkpt><trkpt lat="59.0978404507" lon="30.0180422701"><ele>71.27</ele><time>2026-04-22T12:56:12Z</time></trkpt><trkpt lat="59.0978582203" lon="30.0182053819"><ele>69.83</ele><time>2026-04-22T12:56:19Z</time></trkpt><trkpt lat="59.0978583042" lon="30.0182313658"><ele>69.83</ele><time>2026-04-22T12:56:20Z</time></trkpt><trkpt lat="59.0978618246" lon="30.0182840880"><ele>69.83</ele><time>2026-04-22T12:56:22Z</time></trkpt><trkpt lat="59.0978662670" lon="30.0183083955"><ele>69.83</ele><time>2026-04-22T12:56:23Z</time></trkpt><trkpt lat="59.0978702903" lon="30.0183322001"><ele>69.83</ele><time>2026-04-22T12:56:24Z</time></trkpt><trkpt lat="59.0979390219" lon="30.0187155884"><ele>70.79</ele><time>2026-04-22T12:56:39Z</time></trkpt><trkpt lat="59.0979580488" lon="30.0188478548"><ele>69.83</ele><time>2026-04-22T12:56:49Z</time></trkpt><trkpt lat="59.0979623236" lon="30.0188733358"><ele>69.83</ele><time>2026-04-22T12:56:50Z</time></trkpt><trkpt lat="59.0979681071" lon="30.0189018343"><ele>69.83</ele><time>2026-04-22T12:56:51Z</time></trkpt><trkpt lat="59.0979732201" lon="30.0189307518"><ele>69.83</ele><time>2026-04-22T12:56:52Z</time></trkpt><trkpt lat="59.0979754832" lon="30.0189648662"><ele>69.83</ele><time>2026-04-22T12:56:53Z</time></trkpt><trkpt lat="59.0979772434" lon="30.0191246253"><ele>69.83</ele><time>2026-04-22T12:56:59Z</time></trkpt><trkpt lat="59.0979735553" lon="30.0191356055"><ele>71.76</ele><time>2026-04-22T12:57:02Z</time></trkpt><trkpt lat="59.0979685262" lon="30.0190848112"><ele>70.79</ele><time>2026-04-22T12:57:06Z</time></trkpt><trkpt lat="59.0979753993" lon="30.0190342683"><ele>69.83</ele><time>2026-04-22T12:57:18Z</time></trkpt><trkpt lat="59.0979743097" lon="30.0190416444"><ele>69.35</ele><time>2026-04-22T12:57:30Z</time></trkpt><trkpt lat="59.0979740582" lon="30.0190876611"><ele>68.87</ele><time>2026-04-22T12:57:32Z</time></trkpt><trkpt lat="59.0979764052" lon="30.0191110466"><ele>68.87</ele><time>2026-04-22T12:57:33Z</time></trkpt><trkpt lat="59.0979832783" lon="30.0191280618"><ele>68.87</ele><time>2026-04-22T12:57:34Z</time></trkpt><trkpt lat="59.0980058257" lon="30.0191746652"><ele>70.31</ele><time>2026-04-22T12:57:37Z</time></trkpt><trkpt lat="59.0980270319" lon="30.0192962866"><ele>70.31</ele><time>2026-04-22T12:57:44Z</time></trkpt><trkpt lat="59.0980276186" lon="30.0193269644"><ele>70.31</ele><time>2026-04-22T12:57:45Z</time></trkpt><trkpt lat="59.0980325639" lon="30.0194148906"><ele>70.31</ele><time>2026-04-22T12:58:00Z</time></trkpt><trkpt lat="59.0980536863" lon="30.0194616616"><ele>70.79</ele><time>2026-04-22T12:58:15Z</time></trkpt><trkpt lat="59.0980652533" lon="30.0194958597"><ele>69.35</ele><time>2026-04-22T12:58:17Z</time></trkpt><trkpt lat="59.0980724618" lon="30.0195105281"><ele>69.35</ele><time>2026-04-22T12:58:18Z</time></trkpt><trkpt lat="59.0980779938" lon="30.0195536949"><ele>69.35</ele><time>2026-04-22T12:58:20Z</time></trkpt><trkpt lat="59.0980795864" lon="30.0195782539"><ele>69.35</ele><time>2026-04-22T12:58:21Z</time></trkpt><trkpt lat="59.0980830230" lon="30.0196026452"><ele>69.35</ele><time>2026-04-22T12:58:22Z</time></trkpt><trkpt lat="59.0980841126" lon="30.0196299702"><ele>69.35</ele><time>2026-04-22T12:58:23Z</time></trkpt><trkpt lat="59.0980858728" lon="30.0196608156"><ele>69.35</ele><time>2026-04-22T12:58:24Z</time></trkpt><trkpt lat="59.0980879683" lon="30.0196871348"><ele>69.35</ele><time>2026-04-22T12:58:25Z</time></trkpt><trkpt lat="59.0980957635" lon="30.0197852869"><ele>69.35</ele><time>2026-04-22T12:58:29Z</time></trkpt><trkpt lat="59.0981235914" lon="30.0199680123"><ele>69.35</ele><time>2026-04-22T12:58:36Z</time></trkpt><trkpt lat="59.0981347393" lon="30.0200107601"><ele>69.35</ele><time>2026-04-22T12:58:38Z</time></trkpt><trkpt lat="59.0981392656" lon="30.0200334750"><ele>69.35</ele><time>2026-04-22T12:58:39Z</time></trkpt><trkpt lat="59.0982039738" lon="30.0202964153"><ele>69.35</ele><time>2026-04-22T12:58:52Z</time></trkpt><trkpt lat="59.0982881282" lon="30.0206208788"><ele>69.35</ele><time>2026-04-22T12:59:08Z</time></trkpt><trkpt lat="59.0982960910" lon="30.0206354633"><ele>69.35</ele><time>2026-04-22T12:59:09Z</time></trkpt><trkpt lat="59.0983489808" lon="30.0209123176"><ele>69.35</ele><time>2026-04-22T12:59:21Z</time></trkpt><trkpt lat="59.0983535908" lon="30.0209392235"><ele>68.39</ele><time>2026-04-22T12:59:22Z</time></trkpt><trkpt lat="59.0983570274" lon="30.0209631957"><ele>68.39</ele><time>2026-04-22T12:59:23Z</time></trkpt><trkpt lat="59.0983696841" lon="30.0212684646"><ele>68.39</ele><time>2026-04-22T12:59:35Z</time></trkpt><trkpt lat="59.0984395053" lon="30.0215627532"><ele>68.39</ele><time>2026-04-22T12:59:49Z</time></trkpt><trkpt lat="59.0984962508" lon="30.0218871329"><ele>68.39</ele><time>2026-04-22T13:00:04Z</time></trkpt><trkpt lat="59.0985373221" lon="30.0221069064"><ele>68.39</ele><time>2026-04-22T13:00:14Z</time></trkpt><trkpt lat="59.0985414293" lon="30.0221363269"><ele>68.39</ele><time>2026-04-22T13:00:15Z</time></trkpt><trkpt lat="59.0985436924" lon="30.0221730396"><ele>68.39</ele><time>2026-04-22T13:00:16Z</time></trkpt><trkpt lat="59.0985468775" lon="30.0222048908"><ele>68.39</ele><time>2026-04-22T13:00:17Z</time></trkpt><trkpt lat="59.0985468775" lon="30.0222453754"><ele>68.39</ele><time>2026-04-22T13:00:18Z</time></trkpt><trkpt lat="59.0986097418" lon="30.0225037895"><ele>68.39</ele><time>2026-04-22T13:00:30Z</time></trkpt><trkpt lat="59.0986029524" lon="30.0225266721"><ele>67.91</ele><time>2026-04-22T13:00:31Z</time></trkpt><trkpt lat="59.0985944029" lon="30.0225629658"><ele>67.91</ele><time>2026-04-22T13:00:33Z</time></trkpt><trkpt lat="59.0985999350" lon="30.0225983374"><ele>67.91</ele><time>2026-04-22T13:00:35Z</time></trkpt><trkpt lat="59.0986621287" lon="30.0228589308"><ele>67.91</ele><time>2026-04-22T13:00:47Z</time></trkpt><trkpt lat="59.0986735281" lon="30.0229483657"><ele>67.91</ele><time>2026-04-22T13:00:51Z</time></trkpt><trkpt lat="59.0987182874" lon="30.0231912732"><ele>67.91</ele><time>2026-04-22T13:01:01Z</time></trkpt><trkpt lat="59.0987246577" lon="30.0232134014"><ele>67.91</ele><time>2026-04-22T13:01:02Z</time></trkpt><trkpt lat="59.0987553354" lon="30.0234630145"><ele>67.91</ele><time>2026-04-22T13:01:14Z</time></trkpt><trkpt lat="59.0987591911" lon="30.0234876573"><ele>67.91</ele><time>2026-04-22T13:01:15Z</time></trkpt><trkpt lat="59.0987631306" lon="30.0235110428"><ele>67.91</ele><time>2026-04-22T13:01:16Z</time></trkpt><trkpt lat="59.0987672377" lon="30.0235547964"><ele>67.91</ele><time>2026-04-22T13:01:18Z</time></trkpt><trkpt lat="59.0987663157" lon="30.0235816184"><ele>67.91</ele><time>2026-04-22T13:01:19Z</time></trkpt><trkpt lat="59.0987694170" lon="30.0236017350"><ele>67.91</ele><time>2026-04-22T13:01:20Z</time></trkpt><trkpt lat="59.0988332871" lon="30.0239150506"><ele>69.35</ele><time>2026-04-22T13:01:36Z</time></trkpt><trkpt lat="59.0988974925" lon="30.0242075790"><ele>69.35</ele><time>2026-04-22T13:01:50Z</time></trkpt><trkpt lat="59.0989347082" lon="30.0243413541"><ele>67.91</ele><time>2026-04-22T13:01:56Z</time></trkpt><trkpt lat="59.0989967342" lon="30.0246408395"><ele>67.91</ele><time>2026-04-22T13:02:11Z</time></trkpt><trkpt lat="59.0990123246" lon="30.0248224754"><ele>68.87</ele><time>2026-04-22T13:02:18Z</time></trkpt><trkpt lat="59.0990173537" lon="30.0248451065"><ele>68.87</ele><time>2026-04-22T13:02:19Z</time></trkpt><trkpt lat="59.0990207903" lon="30.0248724315"><ele>68.87</ele><time>2026-04-22T13:02:20Z</time></trkpt><trkpt lat="59.0990270767" lon="30.0248940568"><ele>68.87</ele><time>2026-04-22T13:02:21Z</time></trkpt><trkpt lat="59.0990248136" lon="30.0250694901"><ele>68.87</ele><time>2026-04-22T13:02:35Z</time></trkpt><trkpt lat="59.0990509652" lon="30.0252465997"><ele>67.91</ele><time>2026-04-22T13:02:51Z</time></trkpt><trkpt lat="59.0991330240" lon="30.0256125536"><ele>67.91</ele><time>2026-04-22T13:03:06Z</time></trkpt><trkpt lat="59.0991430823" lon="30.0256341789"><ele>67.91</ele><time>2026-04-22T13:03:07Z</time></trkpt><trkpt lat="59.0992025100" lon="30.0258479174"><ele>67.91</ele><time>2026-04-22T13:03:18Z</time></trkpt><trkpt lat="59.0992047731" lon="30.0258758292"><ele>67.91</ele><time>2026-04-22T13:03:19Z</time></trkpt><trkpt lat="59.0992374625" lon="30.0261190720"><ele>67.91</ele><time>2026-04-22T13:03:29Z</time></trkpt><trkpt lat="59.0992515441" lon="30.0262662582"><ele>67.91</ele><time>2026-04-22T13:03:35Z</time></trkpt><trkpt lat="59.0992673021" lon="30.0263016298"><ele>67.91</ele><time>2026-04-22T13:03:38Z</time></trkpt><trkpt lat="59.0992679726" lon="30.0263245963"><ele>67.91</ele><time>2026-04-22T13:03:39Z</time></trkpt><trkpt lat="59.0992673021" lon="30.0263502449"><ele>67.91</ele><time>2026-04-22T13:03:40Z</time></trkpt><trkpt lat="59.0992651228" lon="30.0263773184"><ele>67.91</ele><time>2026-04-22T13:03:41Z</time></trkpt><trkpt lat="59.0992591716" lon="30.0264069904"><ele>68.87</ele><time>2026-04-22T13:03:42Z</time></trkpt><trkpt lat="59.0992609318" lon="30.0264823437"><ele>69.83</ele><time>2026-04-22T13:03:45Z</time></trkpt><trkpt lat="59.0993051883" lon="30.0267857686"><ele>69.83</ele><time>2026-04-22T13:03:57Z</time></trkpt><trkpt lat="59.0993322618" lon="30.0270425901"><ele>69.83</ele><time>2026-04-22T13:04:08Z</time></trkpt><trkpt lat="59.0993375424" lon="30.0270621199"><ele>69.83</ele><time>2026-04-22T13:04:09Z</time></trkpt><trkpt lat="59.0994104650" lon="30.0273088831"><ele>68.87</ele><time>2026-04-22T13:04:22Z</time></trkpt><trkpt lat="59.0994183440" lon="30.0273305085"><ele>68.87</ele><time>2026-04-22T13:04:23Z</time></trkpt><trkpt lat="59.0994613431" lon="30.0274615176"><ele>68.87</ele><time>2026-04-22T13:04:29Z</time></trkpt><trkpt lat="59.0995535441" lon="30.0277684629"><ele>68.87</ele><time>2026-04-22T13:04:46Z</time></trkpt><trkpt lat="59.0995349362" lon="30.0278457440"><ele>68.87</ele><time>2026-04-22T13:04:48Z</time></trkpt><trkpt lat="59.0995316673" lon="30.0278765056"><ele>68.87</ele><time>2026-04-22T13:04:49Z</time></trkpt><trkpt lat="59.0995383728" lon="30.0279238634"><ele>68.87</ele><time>2026-04-22T13:04:51Z</time></trkpt><trkpt lat="59.0995748341" lon="30.0280164834"><ele>68.87</ele><time>2026-04-22T13:04:57Z</time></trkpt><trkpt lat="59.0995915141" lon="30.0280457363"><ele>68.87</ele><time>2026-04-22T13:04:59Z</time></trkpt><trkpt lat="59.0996442363" lon="30.0284449663"><ele>69.83</ele><time>2026-04-22T13:05:15Z</time></trkpt><trkpt lat="59.0996870678" lon="30.0287058949"><ele>70.31</ele><time>2026-04-22T13:05:27Z</time></trkpt><trkpt lat="59.0996931028" lon="30.0288437773"><ele>71.27</ele><time>2026-04-22T13:05:32Z</time></trkpt><trkpt lat="59.0997614991" lon="30.0291858427"><ele>69.83</ele><time>2026-04-22T13:05:47Z</time></trkpt><trkpt lat="59.0997667797" lon="30.0292077195"><ele>69.83</ele><time>2026-04-22T13:05:48Z</time></trkpt><trkpt lat="59.0997856390" lon="30.0292814802"><ele>69.83</ele><time>2026-04-22T13:05:51Z</time></trkpt><trkpt lat="59.0997897461" lon="30.0293691549"><ele>69.83</ele><time>2026-04-22T13:05:54Z</time></trkpt><trkpt lat="59.0997949429" lon="30.0293946359"><ele>69.83</ele><time>2026-04-22T13:05:55Z</time></trkpt><trkpt lat="59.0997996368" lon="30.0294200331"><ele>69.83</ele><time>2026-04-22T13:05:56Z</time></trkpt><trkpt lat="59.0998391155" lon="30.0297025871"><ele>69.83</ele><time>2026-04-22T13:06:07Z</time></trkpt><trkpt lat="59.0998847969" lon="30.0300595723"><ele>68.87</ele><time>2026-04-22T13:06:21Z</time></trkpt><trkpt lat="59.0999327414" lon="30.0303225126"><ele>68.39</ele><time>2026-04-22T13:06:34Z</time></trkpt><trkpt lat="59.0999731421" lon="30.0305065792"><ele>67.91</ele><time>2026-04-22T13:06:46Z</time></trkpt><trkpt lat="59.0999922529" lon="30.0307345670"><ele>67.91</ele><time>2026-04-22T13:06:58Z</time></trkpt><trkpt lat="59.0999985393" lon="30.0307525881"><ele>67.91</ele><time>2026-04-22T13:06:59Z</time></trkpt><trkpt lat="59.1000032332" lon="30.0307732075"><ele>67.91</ele><time>2026-04-22T13:07:00Z</time></trkpt><trkpt lat="59.1000577994" lon="30.0311033707"><ele>67.91</ele><time>2026-04-22T13:07:15Z</time></trkpt><trkpt lat="59.1001073364" lon="30.0314036105"><ele>67.91</ele><time>2026-04-22T13:07:29Z</time></trkpt><trkpt lat="59.1001118626" lon="30.0314273313"><ele>67.91</ele><time>2026-04-22T13:07:30Z</time></trkpt><trkpt lat="59.1001168918" lon="30.0314968172"><ele>67.91</ele><time>2026-04-22T13:07:33Z</time></trkpt><trkpt lat="59.1001418699" lon="30.0315678120"><ele>67.91</ele><time>2026-04-22T13:07:37Z</time></trkpt><trkpt lat="59.1001475696" lon="30.0316242222"><ele>67.91</ele><time>2026-04-22T13:07:39Z</time></trkpt><trkpt lat="59.1001515090" lon="30.0316465180"><ele>67.91</ele><time>2026-04-22T13:07:40Z</time></trkpt><trkpt lat="59.1001711227" lon="30.0317513756"><ele>67.91</ele><time>2026-04-22T13:07:46Z</time></trkpt><trkpt lat="59.1001759004" lon="30.0317709893"><ele>67.91</ele><time>2026-04-22T13:07:47Z</time></trkpt><trkpt lat="59.1001997888" lon="30.0318858214"><ele>67.91</ele><time>2026-04-22T13:07:52Z</time></trkpt><trkpt lat="59.1002029739" lon="30.0319478475"><ele>67.91</ele><time>2026-04-22T13:07:55Z</time></trkpt><trkpt lat="59.1002467275" lon="30.0321687106"><ele>67.91</ele><time>2026-04-22T13:08:08Z</time></trkpt><trkpt lat="59.1002665088" lon="30.0322117936"><ele>68.87</ele><time>2026-04-22T13:08:11Z</time></trkpt><trkpt lat="59.1002973542" lon="30.0322952773"><ele>68.87</ele><time>2026-04-22T13:08:16Z</time></trkpt><trkpt lat="59.1003020480" lon="30.0323200040"><ele>68.87</ele><time>2026-04-22T13:08:17Z</time></trkpt><trkpt lat="59.1003136151" lon="30.0324013922"><ele>68.87</ele><time>2026-04-22T13:08:21Z</time></trkpt><trkpt lat="59.1003147885" lon="30.0324764103"><ele>69.83</ele><time>2026-04-22T13:08:24Z</time></trkpt><trkpt lat="59.1003363300" lon="30.0326615665"><ele>69.83</ele><time>2026-04-22T13:08:33Z</time></trkpt><trkpt lat="59.1003472265" lon="30.0328143686"><ele>68.39</ele><time>2026-04-22T13:08:40Z</time></trkpt><trkpt lat="59.1003512498" lon="30.0328391790"><ele>68.39</ele><time>2026-04-22T13:08:41Z</time></trkpt><trkpt lat="59.1003817599" lon="30.0330277719"><ele>68.39</ele><time>2026-04-22T13:08:50Z</time></trkpt><trkpt lat="59.1004094202" lon="30.0332229864"><ele>68.39</ele><time>2026-04-22T13:08:59Z</time></trkpt><trkpt lat="59.1004539281" lon="30.0334793050"><ele>68.39</ele><time>2026-04-22T13:09:14Z</time></trkpt><trkpt lat="59.1004669201" lon="30.0335616991"><ele>68.39</ele><time>2026-04-22T13:09:18Z</time></trkpt><trkpt lat="59.1005201451" lon="30.0337600149"><ele>68.39</ele><time>2026-04-22T13:09:30Z</time></trkpt><trkpt lat="59.1005268507" lon="30.0337788742"><ele>68.39</ele><time>2026-04-22T13:09:31Z</time></trkpt><trkpt lat="59.1005953308" lon="30.0339988992"><ele>68.39</ele><time>2026-04-22T13:09:44Z</time></trkpt><trkpt lat="59.1006149445" lon="30.0340734981"><ele>68.39</ele><time>2026-04-22T13:09:48Z</time></trkpt><trkpt lat="59.1006188840" lon="30.0340950396"><ele>68.39</ele><time>2026-04-22T13:09:49Z</time></trkpt><trkpt lat="59.1006231587" lon="30.0341178384"><ele>68.39</ele><time>2026-04-22T13:09:50Z</time></trkpt><trkpt lat="59.1006452031" lon="30.0342255458"><ele>68.39</ele><time>2026-04-22T13:09:56Z</time></trkpt><trkpt lat="59.1006590333" lon="30.0343079399"><ele>68.39</ele><time>2026-04-22T13:10:00Z</time></trkpt><trkpt lat="59.1006686725" lon="30.0343522802"><ele>68.39</ele><time>2026-04-22T13:10:02Z</time></trkpt><trkpt lat="59.1006879508" lon="30.0344519410"><ele>68.39</ele><time>2026-04-22T13:10:07Z</time></trkpt><trkpt lat="59.1006933153" lon="30.0344713870"><ele>68.39</ele><time>2026-04-22T13:10:08Z</time></trkpt><trkpt lat="59.1007347219" lon="30.0348629896"><ele>68.39</ele><time>2026-04-22T13:10:24Z</time></trkpt><trkpt lat="59.1007754579" lon="30.0352274347"><ele>68.39</ele><time>2026-04-22T13:10:36Z</time></trkpt><trkpt lat="59.1008271743" lon="30.0353889540"><ele>68.39</ele><time>2026-04-22T13:10:46Z</time></trkpt><trkpt lat="59.1008871049" lon="30.0357176922"><ele>67.91</ele><time>2026-04-22T13:11:00Z</time></trkpt><trkpt lat="59.1008931398" lon="30.0357373059"><ele>67.91</ele><time>2026-04-22T13:11:01Z</time></trkpt><trkpt lat="59.1008966602" lon="30.0357618649"><ele>67.91</ele><time>2026-04-22T13:11:02Z</time></trkpt><trkpt lat="59.1009021085" lon="30.0357831549"><ele>67.91</ele><time>2026-04-22T13:11:03Z</time></trkpt><trkpt lat="59.1009145975" lon="30.0358520541"><ele>67.91</ele><time>2026-04-22T13:11:06Z</time></trkpt><trkpt lat="59.1009756178" lon="30.0361498632"><ele>67.91</ele><time>2026-04-22T13:11:21Z</time></trkpt><trkpt lat="59.1010016855" lon="30.0363160763"><ele>67.91</ele><time>2026-04-22T13:11:29Z</time></trkpt><trkpt lat="59.1010067146" lon="30.0363425631"><ele>69.35</ele><time>2026-04-22T13:11:30Z</time></trkpt><trkpt lat="59.1010083910" lon="30.0363765098"><ele>69.35</ele><time>2026-04-22T13:11:31Z</time></trkpt><trkpt lat="59.1010092292" lon="30.0364076067"><ele>69.35</ele><time>2026-04-22T13:11:32Z</time></trkpt><trkpt lat="59.1010098998" lon="30.0364354346"><ele>69.35</ele><time>2026-04-22T13:11:33Z</time></trkpt><trkpt lat="59.1010546591" lon="30.0365662761"><ele>69.35</ele><time>2026-04-22T13:11:40Z</time></trkpt><trkpt lat="59.1011093091" lon="30.0368697848"><ele>69.35</ele><time>2026-04-22T13:11:53Z</time></trkpt><trkpt lat="59.1011452675" lon="30.0371277798"><ele>67.91</ele><time>2026-04-22T13:12:03Z</time></trkpt><trkpt lat="59.1011884343" lon="30.0374520756"><ele>69.35</ele><time>2026-04-22T13:12:15Z</time></trkpt><trkpt lat="59.1011935472" lon="30.0375050493"><ele>69.35</ele><time>2026-04-22T13:12:17Z</time></trkpt><trkpt lat="59.1011981573" lon="30.0375283509"><ele>69.35</ele><time>2026-04-22T13:12:18Z</time></trkpt><trkpt lat="59.1012035217" lon="30.0375515688"><ele>69.35</ele><time>2026-04-22T13:12:19Z</time></trkpt><trkpt lat="59.1012332775" lon="30.0377784669"><ele>69.35</ele><time>2026-04-22T13:12:28Z</time></trkpt><trkpt lat="59.1012774501" lon="30.0379592646"><ele>69.35</ele><time>2026-04-22T13:12:38Z</time></trkpt><trkpt lat="59.1013018414" lon="30.0382196065"><ele>69.83</ele><time>2026-04-22T13:12:52Z</time></trkpt><trkpt lat="59.1013130732" lon="30.0382559840"><ele>69.83</ele><time>2026-04-22T13:12:54Z</time></trkpt><trkpt lat="59.1013780329" lon="30.0384793617"><ele>69.83</ele><time>2026-04-22T13:13:07Z</time></trkpt><trkpt lat="59.1013854090" lon="30.0385010708"><ele>69.83</ele><time>2026-04-22T13:13:08Z</time></trkpt><trkpt lat="59.1013880074" lon="30.0385256298"><ele>69.83</ele><time>2026-04-22T13:13:09Z</time></trkpt><trkpt lat="59.1014367901" lon="30.0388650130"><ele>71.27</ele><time>2026-04-22T13:13:24Z</time></trkpt><trkpt lat="59.1014650371" lon="30.0391412806"><ele>71.27</ele><time>2026-04-22T13:13:34Z</time></trkpt><trkpt lat="59.1015427373" lon="30.0395175442"><ele>71.27</ele><time>2026-04-22T13:13:50Z</time></trkpt><trkpt lat="59.1015400551" lon="30.0395669136"><ele>71.27</ele><time>2026-04-22T13:13:52Z</time></trkpt><trkpt lat="59.1015419830" lon="30.0395928975"><ele>71.27</ele><time>2026-04-22T13:13:53Z</time></trkpt><trkpt lat="59.1015877482" lon="30.0397912972"><ele>71.27</ele><time>2026-04-22T13:14:03Z</time></trkpt><trkpt lat="59.1016190127" lon="30.0400340371"><ele>69.35</ele><time>2026-04-22T13:14:14Z</time></trkpt><trkpt lat="59.1016082000" lon="30.0400305167"><ele>71.27</ele><time>2026-04-22T13:14:36Z</time></trkpt><trkpt lat="59.1016020812" lon="30.0400405750"><ele>71.27</ele><time>2026-04-22T13:14:58Z</time></trkpt><trkpt lat="59.1016145702" lon="30.0400383957"><ele>69.83</ele><time>2026-04-22T13:15:21Z</time></trkpt><trkpt lat="59.1016258858" lon="30.0400238112"><ele>69.35</ele><time>2026-04-22T13:15:46Z</time></trkpt><trkpt lat="59.1016233712" lon="30.0400310196"><ele>69.35</ele><time>2026-04-22T13:16:01Z</time></trkpt><trkpt lat="59.1016280651" lon="30.0400331989"><ele>70.79</ele><time>2026-04-22T13:16:08Z</time></trkpt><trkpt lat="59.1016382910" lon="30.0401223823"><ele>70.79</ele><time>2026-04-22T13:16:28Z</time></trkpt><trkpt lat="59.1016819607" lon="30.0402662996"><ele>70.79</ele><time>2026-04-22T13:16:35Z</time></trkpt><trkpt lat="59.1016890015" lon="30.0403118972"><ele>70.79</ele><time>2026-04-22T13:16:37Z</time></trkpt><trkpt lat="59.1016995627" lon="30.0404811278"><ele>70.79</ele><time>2026-04-22T13:16:49Z</time></trkpt><trkpt lat="59.1017295700" lon="30.0405639410"><ele>70.79</ele><time>2026-04-22T13:16:54Z</time></trkpt><trkpt lat="59.1017393768" lon="30.0406158250"><ele>70.79</ele><time>2026-04-22T13:16:56Z</time></trkpt><trkpt lat="59.1017661151" lon="30.0408068486"><ele>69.35</ele><time>2026-04-22T13:17:03Z</time></trkpt><trkpt lat="59.1018137243" lon="30.0411512610"><ele>69.35</ele><time>2026-04-22T13:17:17Z</time></trkpt><trkpt lat="59.1018391214" lon="30.0412769895"><ele>69.35</ele><time>2026-04-22T13:17:22Z</time></trkpt><trkpt lat="59.1018551309" lon="30.0413839426"><ele>69.35</ele><time>2026-04-22T13:17:27Z</time></trkpt><trkpt lat="59.1018599924" lon="30.0414574519"><ele>70.79</ele><time>2026-04-22T13:17:30Z</time></trkpt><trkpt lat="59.1019044165" lon="30.0417221524"><ele>70.79</ele><time>2026-04-22T13:17:43Z</time></trkpt><trkpt lat="59.1019190848" lon="30.0417914707"><ele>70.79</ele><time>2026-04-22T13:17:46Z</time></trkpt><trkpt lat="59.1019239463" lon="30.0418173708"><ele>70.79</ele><time>2026-04-22T13:17:47Z</time></trkpt><trkpt lat="59.1019474994" lon="30.0419788901"><ele>69.35</ele><time>2026-04-22T13:17:54Z</time></trkpt><trkpt lat="59.1019992996" lon="30.0423655473"><ele>68.87</ele><time>2026-04-22T13:18:10Z</time></trkpt><trkpt lat="59.1020102799" lon="30.0424188562"><ele>68.87</ele><time>2026-04-22T13:18:12Z</time></trkpt><trkpt lat="59.1020744015" lon="30.0427470915"><ele>68.87</ele><time>2026-04-22T13:18:27Z</time></trkpt><trkpt lat="59.1020777542" lon="30.0427677110"><ele>68.87</ele><time>2026-04-22T13:18:28Z</time></trkpt><trkpt lat="59.1020887345" lon="30.0428786874"><ele>68.87</ele><time>2026-04-22T13:18:33Z</time></trkpt><trkpt lat="59.1020929255" lon="30.0428998936"><ele>68.87</ele><time>2026-04-22T13:18:34Z</time></trkpt><trkpt lat="59.1021505930" lon="30.0432194956"><ele>68.87</ele><time>2026-04-22T13:18:48Z</time></trkpt><trkpt lat="59.1021567956" lon="30.0432381034"><ele>68.87</ele><time>2026-04-22T13:18:49Z</time></trkpt><trkpt lat="59.1021842882" lon="30.0433524325"><ele>68.87</ele><time>2026-04-22T13:18:56Z</time></trkpt><trkpt lat="59.1022020578" lon="30.0435613934"><ele>68.87</ele><time>2026-04-22T13:19:05Z</time></trkpt><trkpt lat="59.1022235993" lon="30.0436080806"><ele>68.87</ele><time>2026-04-22T13:19:08Z</time></trkpt><trkpt lat="59.1022306401" lon="30.0436287001"><ele>68.87</ele><time>2026-04-22T13:19:09Z</time></trkpt><trkpt lat="59.1022303049" lon="30.0437017903"><ele>68.39</ele><time>2026-04-22T13:19:12Z</time></trkpt><trkpt lat="59.1022267006" lon="30.0437680911"><ele>68.39</ele><time>2026-04-22T13:19:15Z</time></trkpt><trkpt lat="59.1022338253" lon="30.0437912252"><ele>68.39</ele><time>2026-04-22T13:19:16Z</time></trkpt><trkpt lat="59.1022398602" lon="30.0438172091"><ele>68.39</ele><time>2026-04-22T13:19:17Z</time></trkpt><trkpt lat="59.1022427101" lon="30.0438445341"><ele>68.39</ele><time>2026-04-22T13:19:18Z</time></trkpt><trkpt lat="59.1022816021" lon="30.0440435205"><ele>68.39</ele><time>2026-04-22T13:19:28Z</time></trkpt><trkpt lat="59.1022909898" lon="30.0440632179"><ele>68.39</ele><time>2026-04-22T13:19:29Z</time></trkpt><trkpt lat="59.1023217514" lon="30.0441640522"><ele>67.91</ele><time>2026-04-22T13:19:35Z</time></trkpt><trkpt lat="59.1023506690" lon="30.0444818940"><ele>67.91</ele><time>2026-04-22T13:19:48Z</time></trkpt><trkpt lat="59.1023983620" lon="30.0447141565"><ele>67.43</ele><time>2026-04-22T13:20:00Z</time></trkpt><trkpt lat="59.1024312191" lon="30.0449026655"><ele>67.43</ele><time>2026-04-22T13:20:12Z</time></trkpt><trkpt lat="59.1024372540" lon="30.0449460000"><ele>67.43</ele><time>2026-04-22T13:20:18Z</time></trkpt><trkpt lat="59.1024677642" lon="30.0451627560"><ele>66.95</ele><time>2026-04-22T13:20:31Z</time></trkpt><trkpt lat="59.1025066562" lon="30.0452629197"><ele>66.95</ele><time>2026-04-22T13:20:38Z</time></trkpt><trkpt lat="59.1025447939" lon="30.0455219205"><ele>67.91</ele><time>2026-04-22T13:20:50Z</time></trkpt><trkpt lat="59.1025429498" lon="30.0455491617"><ele>67.91</ele><time>2026-04-22T13:20:51Z</time></trkpt><trkpt lat="59.1025563609" lon="30.0456763152"><ele>67.91</ele><time>2026-04-22T13:20:56Z</time></trkpt><trkpt lat="59.1026292834" lon="30.0459724478"><ele>67.91</ele><time>2026-04-22T13:21:10Z</time></trkpt><trkpt lat="59.1026742104" lon="30.0461285189"><ele>67.91</ele><time>2026-04-22T13:21:19Z</time></trkpt><trkpt lat="59.1027192213" lon="30.0463176146"><ele>66.95</ele><time>2026-04-22T13:21:28Z</time></trkpt><trkpt lat="59.1027501505" lon="30.0465852488"><ele>67.91</ele><time>2026-04-22T13:21:42Z</time></trkpt><trkpt lat="59.1028010286" lon="30.0467510428"><ele>67.91</ele><time>2026-04-22T13:21:51Z</time></trkpt><trkpt lat="59.1028430220" lon="30.0469631050"><ele>67.91</ele><time>2026-04-22T13:22:03Z</time></trkpt><trkpt lat="59.1029011924" lon="30.0471154042"><ele>67.91</ele><time>2026-04-22T13:22:18Z</time></trkpt><trkpt lat="59.1029936448" lon="30.0472438987"><ele>66.47</ele><time>2026-04-22T13:22:34Z</time></trkpt><trkpt lat="59.1030275077" lon="30.0472388696"><ele>65.99</ele><time>2026-04-22T13:22:48Z</time></trkpt><trkpt lat="59.1030275915" lon="30.0472383667"><ele>67.43</ele><time>2026-04-22T13:22:50Z</time></trkpt><trkpt lat="59.1030477919" lon="30.0472261291"><ele>67.43</ele><time>2026-04-22T13:23:17Z</time></trkpt><trkpt lat="59.1030542459" lon="30.0472268835"><ele>67.43</ele><time>2026-04-22T13:23:36Z</time></trkpt><trkpt lat="59.1030734405" lon="30.0472355168"><ele>66.47</ele><time>2026-04-22T13:23:49Z</time></trkpt><trkpt lat="59.1030878574" lon="30.0472563878"><ele>66.47</ele><time>2026-04-22T13:24:15Z</time></trkpt><trkpt lat="59.1030905396" lon="30.0472587347"><ele>67.43</ele><time>2026-04-22T13:24:22Z</time></trkpt><trkpt lat="59.1031047050" lon="30.0472402107"><ele>67.91</ele><time>2026-04-22T13:24:46Z</time></trkpt><trkpt lat="59.1031319462" lon="30.0471867342"><ele>66.47</ele><time>2026-04-22T13:25:00Z</time></trkpt><trkpt lat="59.1031355504" lon="30.0471725687"><ele>66.47</ele><time>2026-04-22T13:25:01Z</time></trkpt><trkpt lat="59.1031553317" lon="30.0470988918"><ele>65.99</ele><time>2026-04-22T13:25:15Z</time></trkpt><trkpt lat="59.1031731013" lon="30.0470594969"><ele>66.95</ele><time>2026-04-22T13:25:32Z</time></trkpt><trkpt lat="59.1031855904" lon="30.0470541324"><ele>66.95</ele><time>2026-04-22T13:25:57Z</time></trkpt><trkpt lat="59.1032007616" lon="30.0470403861"><ele>67.43</ele><time>2026-04-22T13:26:15Z</time></trkpt><trkpt lat="59.1032081377" lon="30.0470203534"><ele>65.99</ele><time>2026-04-22T13:26:46Z</time></trkpt><trkpt lat="59.1032114904" lon="30.0470199343"><ele>67.43</ele><time>2026-04-22T13:26:50Z</time></trkpt><trkpt lat="59.1032282542" lon="30.0469974708"><ele>67.43</ele><time>2026-04-22T13:27:20Z</time></trkpt><trkpt lat="59.1032367200" lon="30.0469911844"><ele>67.91</ele><time>2026-04-22T13:27:45Z</time></trkpt><trkpt lat="59.1032399889" lon="30.0469703972"><ele>66.95</ele><time>2026-04-22T13:28:11Z</time></trkpt><trkpt lat="59.1032426711" lon="30.0469334330"><ele>67.91</ele><time>2026-04-22T13:28:22Z</time></trkpt><trkpt lat="59.1032539867" lon="30.0467976462"><ele>68.39</ele><time>2026-04-22T13:28:36Z</time></trkpt><trkpt lat="59.1032078862" lon="30.0465788785"><ele>68.39</ele><time>2026-04-22T13:28:49Z</time></trkpt><trkpt lat="59.1031634621" lon="30.0464946404"><ele>68.39</ele><time>2026-04-22T13:28:53Z</time></trkpt><trkpt lat="59.1031061299" lon="30.0463011023"><ele>69.35</ele><time>2026-04-22T13:29:06Z</time></trkpt><trkpt lat="59.1030278429" lon="30.0460654031"><ele>69.35</ele><time>2026-04-22T13:29:19Z</time></trkpt><trkpt lat="59.1029682476" lon="30.0458809175"><ele>69.35</ele><time>2026-04-22T13:29:31Z</time></trkpt><trkpt lat="59.1029706784" lon="30.0457774010"><ele>69.35</ele><time>2026-04-22T13:29:43Z</time></trkpt><trkpt lat="59.1029640567" lon="30.0456401054"><ele>69.35</ele><time>2026-04-22T13:29:59Z</time></trkpt><trkpt lat="59.1029593628" lon="30.0456131995"><ele>68.87</ele><time>2026-04-22T13:30:15Z</time></trkpt><trkpt lat="59.1029451136" lon="30.0456008781"><ele>69.35</ele><time>2026-04-22T13:30:39Z</time></trkpt><trkpt lat="59.1029416770" lon="30.0455787499"><ele>69.35</ele><time>2026-04-22T13:31:02Z</time></trkpt><trkpt lat="59.1029222310" lon="30.0455396902"><ele>70.31</ele><time>2026-04-22T13:31:26Z</time></trkpt><trkpt lat="59.1028845124" lon="30.0454429630"><ele>70.79</ele><time>2026-04-22T13:31:36Z</time></trkpt><trkpt lat="59.1028510686" lon="30.0454564579"><ele>70.79</ele><time>2026-04-22T13:31:53Z</time></trkpt><trkpt lat="59.1028725263" lon="30.0454173982"><ele>71.76</ele><time>2026-04-22T13:32:13Z</time></trkpt><trkpt lat="59.1028742027" lon="30.0452774204"><ele>71.76</ele><time>2026-04-22T13:32:24Z</time></trkpt><trkpt lat="59.1028852668" lon="30.0452664401"><ele>70.31</ele><time>2026-04-22T13:32:26Z</time></trkpt><trkpt lat="59.1028733645" lon="30.0451466627"><ele>69.83</ele><time>2026-04-22T13:32:39Z</time></trkpt><trkpt lat="59.1028788127" lon="30.0450778473"><ele>71.27</ele><time>2026-04-22T13:32:46Z</time></trkpt><trkpt lat="59.1028757114" lon="30.0449218601"><ele>71.27</ele><time>2026-04-22T13:32:58Z</time></trkpt><trkpt lat="59.1028055549" lon="30.0448864885"><ele>70.31</ele><time>2026-04-22T13:33:10Z</time></trkpt><trkpt lat="59.1027962510" lon="30.0448112190"><ele>71.76</ele><time>2026-04-22T13:33:18Z</time></trkpt><trkpt lat="59.1027379129" lon="30.0447184313"><ele>70.79</ele><time>2026-04-22T13:33:29Z</time></trkpt><trkpt lat="59.1026940756" lon="30.0445460994"><ele>71.76</ele><time>2026-04-22T13:33:37Z</time></trkpt><trkpt lat="59.1026199795" lon="30.0443842448"><ele>70.79</ele><time>2026-04-22T13:33:47Z</time></trkpt><trkpt lat="59.1025842726" lon="30.0441902038"><ele>70.79</ele><time>2026-04-22T13:34:00Z</time></trkpt><trkpt lat="59.1026034672" lon="30.0440852623"><ele>72.24</ele><time>2026-04-22T13:34:08Z</time></trkpt><trkpt lat="59.1025816742" lon="30.0438759662"><ele>72.72</ele><time>2026-04-22T13:34:21Z</time></trkpt><trkpt lat="59.1025669221" lon="30.0436870381"><ele>72.72</ele><time>2026-04-22T13:34:34Z</time></trkpt><trkpt lat="59.1025540140" lon="30.0434991159"><ele>71.27</ele><time>2026-04-22T13:34:43Z</time></trkpt><trkpt lat="59.1025156248" lon="30.0433489121"><ele>71.27</ele><time>2026-04-22T13:34:55Z</time></trkpt><trkpt lat="59.1025043931" lon="30.0432067551"><ele>70.79</ele><time>2026-04-22T13:35:08Z</time></trkpt><trkpt lat="59.1025017947" lon="30.0431979541"><ele>70.79</ele><time>2026-04-22T13:35:09Z</time></trkpt><trkpt lat="59.1024799179" lon="30.0431220140"><ele>72.24</ele><time>2026-04-22T13:35:21Z</time></trkpt><trkpt lat="59.1024792474" lon="30.0430847146"><ele>72.24</ele><time>2026-04-22T13:35:23Z</time></trkpt><trkpt lat="59.1024090070" lon="30.0429133046"><ele>72.24</ele><time>2026-04-22T13:35:37Z</time></trkpt><trkpt lat="59.1023466457" lon="30.0428547990"><ele>72.24</ele><time>2026-04-22T13:35:43Z</time></trkpt><trkpt lat="59.1022987850" lon="30.0427123904"><ele>72.24</ele><time>2026-04-22T13:35:55Z</time></trkpt><trkpt lat="59.1023085918" lon="30.0426036771"><ele>72.24</ele><time>2026-04-22T13:36:07Z</time></trkpt><trkpt lat="59.1022770759" lon="30.0424320996"><ele>71.27</ele><time>2026-04-22T13:36:20Z</time></trkpt><trkpt lat="59.1022805963" lon="30.0424279086"><ele>72.72</ele><time>2026-04-22T13:36:23Z</time></trkpt><trkpt lat="59.1023292113" lon="30.0424766075"><ele>72.72</ele><time>2026-04-22T13:36:31Z</time></trkpt><trkpt lat="59.1023833584" lon="30.0423699059"><ele>72.72</ele><time>2026-04-22T13:36:44Z</time></trkpt><trkpt lat="59.1023223381" lon="30.0423054490"><ele>73.20</ele><time>2026-04-22T13:36:55Z</time></trkpt><trkpt lat="59.1022963542" lon="30.0422245637"><ele>73.20</ele><time>2026-04-22T13:37:08Z</time></trkpt><trkpt lat="59.1022688616" lon="30.0420644693"><ele>73.20</ele><time>2026-04-22T13:37:19Z</time></trkpt><trkpt lat="59.1022765730" lon="30.0420617033"><ele>73.20</ele><time>2026-04-22T13:37:30Z</time></trkpt><trkpt lat="59.1023008805" lon="30.0420573447"><ele>73.68</ele><time>2026-04-22T13:37:47Z</time></trkpt><trkpt lat="59.1023189854" lon="30.0420669001"><ele>73.20</ele><time>2026-04-22T13:38:06Z</time></trkpt><trkpt lat="59.1023185663" lon="30.0420683250"><ele>73.20</ele><time>2026-04-22T13:38:26Z</time></trkpt><trkpt lat="59.1023333184" lon="30.0419545826"><ele>74.16</ele><time>2026-04-22T13:38:46Z</time></trkpt><trkpt lat="59.1022743098" lon="30.0417365693"><ele>74.16</ele><time>2026-04-22T13:38:59Z</time></trkpt><trkpt lat="59.1022714600" lon="30.0417208113"><ele>74.16</ele><time>2026-04-22T13:39:00Z</time></trkpt><trkpt lat="59.1022150498" lon="30.0415406004"><ele>74.64</ele><time>2026-04-22T13:39:10Z</time></trkpt><trkpt lat="59.1021634173" lon="30.0413454697"><ele>74.64</ele><time>2026-04-22T13:39:24Z</time></trkpt><trkpt lat="59.1021271236" lon="30.0412397739"><ele>74.64</ele><time>2026-04-22T13:39:35Z</time></trkpt><trkpt lat="59.1021095216" lon="30.0411898177"><ele>74.64</ele><time>2026-04-22T13:39:46Z</time></trkpt><trkpt lat="59.1020855494" lon="30.0411015563"><ele>74.64</ele><time>2026-04-22T13:39:54Z</time></trkpt><trkpt lat="59.1020466574" lon="30.0408276357"><ele>73.20</ele><time>2026-04-22T13:40:04Z</time></trkpt><trkpt lat="59.1020485014" lon="30.0408062618"><ele>74.16</ele><time>2026-04-22T13:40:06Z</time></trkpt><trkpt lat="59.1020407900" lon="30.0407204311"><ele>74.16</ele><time>2026-04-22T13:40:18Z</time></trkpt><trkpt lat="59.1020709649" lon="30.0405710656"><ele>74.16</ele><time>2026-04-22T13:40:32Z</time></trkpt><trkpt lat="59.1020778380" lon="30.0404364523"><ele>74.16</ele><time>2026-04-22T13:40:45Z</time></trkpt><trkpt lat="59.1020795982" lon="30.0404152460"><ele>75.60</ele><time>2026-04-22T13:41:01Z</time></trkpt><trkpt lat="59.1021088511" lon="30.0403514598"><ele>75.60</ele><time>2026-04-22T13:41:14Z</time></trkpt><trkpt lat="59.1021317337" lon="30.0403000787"><ele>73.68</ele><time>2026-04-22T13:41:27Z</time></trkpt><trkpt lat="59.1021295544" lon="30.0402979832"><ele>75.12</ele><time>2026-04-22T13:41:30Z</time></trkpt><trkpt lat="59.1021412052" lon="30.0402724184"><ele>76.08</ele><time>2026-04-22T13:41:49Z</time></trkpt><trkpt lat="59.1021205857" lon="30.0401082169"><ele>74.64</ele><time>2026-04-22T13:42:06Z</time></trkpt><trkpt lat="59.1020688694" lon="30.0399217196"><ele>74.64</ele><time>2026-04-22T13:42:16Z</time></trkpt><trkpt lat="59.1020427179" lon="30.0397128426"><ele>74.16</ele><time>2026-04-22T13:42:29Z</time></trkpt><trkpt lat="59.1019818652" lon="30.0394177157"><ele>74.16</ele><time>2026-04-22T13:42:43Z</time></trkpt><trkpt lat="59.1019508522" lon="30.0392982736"><ele>74.16</ele><time>2026-04-22T13:42:54Z</time></trkpt><trkpt lat="59.1019496787" lon="30.0391518418"><ele>74.16</ele><time>2026-04-22T13:43:04Z</time></trkpt><trkpt lat="59.1019158158" lon="30.0389174838"><ele>74.16</ele><time>2026-04-22T13:43:17Z</time></trkpt><trkpt lat="59.1019073501" lon="30.0387955271"><ele>74.16</ele><time>2026-04-22T13:43:28Z</time></trkpt><trkpt lat="59.1018916760" lon="30.0387049187"><ele>74.16</ele><time>2026-04-22T13:43:34Z</time></trkpt><trkpt lat="59.1018612497" lon="30.0385328382"><ele>74.16</ele><time>2026-04-22T13:43:47Z</time></trkpt><trkpt lat="59.1018124670" lon="30.0383429043"><ele>73.20</ele><time>2026-04-22T13:44:02Z</time></trkpt><trkpt lat="59.1017748322" lon="30.0381760206"><ele>73.20</ele><time>2026-04-22T13:44:14Z</time></trkpt><trkpt lat="59.1017407179" lon="30.0380041916"><ele>72.72</ele><time>2026-04-22T13:44:26Z</time></trkpt><trkpt lat="59.1017064359" lon="30.0377895311"><ele>72.72</ele><time>2026-04-22T13:44:39Z</time></trkpt><trkpt lat="59.1017103754" lon="30.0377500523"><ele>74.16</ele><time>2026-04-22T13:44:52Z</time></trkpt><trkpt lat="59.1017081123" lon="30.0377325341"><ele>74.16</ele><time>2026-04-22T13:45:12Z</time></trkpt><trkpt lat="59.1017022450" lon="30.0376881100"><ele>74.16</ele><time>2026-04-22T13:45:37Z</time></trkpt><trkpt lat="59.1017024126" lon="30.0376809854"><ele>72.72</ele><time>2026-04-22T13:45:41Z</time></trkpt><trkpt lat="59.1016808711" lon="30.0375307817"><ele>72.72</ele><time>2026-04-22T13:45:53Z</time></trkpt><trkpt lat="59.1016462538" lon="30.0373475533"><ele>72.72</ele><time>2026-04-22T13:46:06Z</time></trkpt><trkpt lat="59.1016212758" lon="30.0372661650"><ele>72.72</ele><time>2026-04-22T13:46:22Z</time></trkpt><trkpt lat="59.1016219463" lon="30.0372456294"><ele>72.72</ele><time>2026-04-22T13:46:29Z</time></trkpt><trkpt lat="59.1016161628" lon="30.0370078348"><ele>72.72</ele><time>2026-04-22T13:46:42Z</time></trkpt><trkpt lat="59.1015869100" lon="30.0368469022"><ele>72.72</ele><time>2026-04-22T13:46:55Z</time></trkpt><trkpt lat="59.1015858203" lon="30.0368329044"><ele>73.68</ele><time>2026-04-22T13:47:04Z</time></trkpt><trkpt lat="59.1015863232" lon="30.0368297193"><ele>74.16</ele><time>2026-04-22T13:47:07Z</time></trkpt><trkpt lat="59.1015058570" lon="30.0367579702"><ele>74.16</ele><time>2026-04-22T13:47:20Z</time></trkpt><trkpt lat="59.1014643665" lon="30.0366801023"><ele>72.72</ele><time>2026-04-22T13:47:31Z</time></trkpt><trkpt lat="59.1014535539" lon="30.0365630910"><ele>72.72</ele><time>2026-04-22T13:47:44Z</time></trkpt><trkpt lat="59.1014476866" lon="30.0364430621"><ele>73.68</ele><time>2026-04-22T13:47:51Z</time></trkpt><trkpt lat="59.1014130693" lon="30.0363221113"><ele>73.68</ele><time>2026-04-22T13:48:03Z</time></trkpt><trkpt lat="59.1014139913" lon="30.0362881646"><ele>73.68</ele><time>2026-04-22T13:48:17Z</time></trkpt><trkpt lat="59.1014001612" lon="30.0363349356"><ele>73.68</ele><time>2026-04-22T13:48:31Z</time></trkpt><trkpt lat="59.1013244726" lon="30.0363263022"><ele>73.68</ele><time>2026-04-22T13:48:39Z</time></trkpt><trkpt lat="59.1013017576" lon="30.0362503622"><ele>73.68</ele><time>2026-04-22T13:48:44Z</time></trkpt><trkpt lat="59.1012759414" lon="30.0362132303"><ele>73.68</ele><time>2026-04-22T13:48:47Z</time></trkpt><trkpt lat="59.1012442578" lon="30.0361615140"><ele>73.68</ele><time>2026-04-22T13:48:51Z</time></trkpt><trkpt lat="59.1012186930" lon="30.0360152498"><ele>73.68</ele><time>2026-04-22T13:49:01Z</time></trkpt><trkpt lat="59.1012085509" lon="30.0359668862"><ele>72.24</ele><time>2026-04-22T13:49:04Z</time></trkpt><trkpt lat="59.1012069583" lon="30.0359450933"><ele>72.24</ele><time>2026-04-22T13:49:05Z</time></trkpt><trkpt lat="59.1011758614" lon="30.0358518027"><ele>74.16</ele><time>2026-04-22T13:49:10Z</time></trkpt><trkpt lat="59.1011527274" lon="30.0356397405"><ele>74.16</ele><time>2026-04-22T13:49:22Z</time></trkpt><trkpt lat="59.1011513863" lon="30.0356104877"><ele>73.20</ele><time>2026-04-22T13:49:24Z</time></trkpt><trkpt lat="59.1011482012" lon="30.0354581047"><ele>74.64</ele><time>2026-04-22T13:49:36Z</time></trkpt><trkpt lat="59.1011495423" lon="30.0354534108"><ele>74.64</ele><time>2026-04-22T13:49:37Z</time></trkpt><trkpt lat="59.1011254024" lon="30.0353792310"><ele>73.20</ele><time>2026-04-22T13:49:54Z</time></trkpt><trkpt lat="59.1011264082" lon="30.0354214758"><ele>74.64</ele><time>2026-04-22T13:50:19Z</time></trkpt><trkpt lat="59.1011258215" lon="30.0354217272"><ele>73.20</ele><time>2026-04-22T13:50:21Z</time></trkpt><trkpt lat="59.1011331137" lon="30.0354197994"><ele>72.24</ele><time>2026-04-22T13:50:45Z</time></trkpt><trkpt lat="59.1011186130" lon="30.0353449490"><ele>72.72</ele><time>2026-04-22T13:51:09Z</time></trkpt><trkpt lat="59.1011061240" lon="30.0351784844"><ele>74.16</ele><time>2026-04-22T13:51:20Z</time></trkpt><trkpt lat="59.1011081357" lon="30.0349935796"><ele>74.16</ele><time>2026-04-22T13:51:34Z</time></trkpt><trkpt lat="59.1010789666" lon="30.0349302962"><ele>73.20</ele><time>2026-04-22T13:51:48Z</time></trkpt><trkpt lat="59.1010597721" lon="30.0347733032"><ele>73.20</ele><time>2026-04-22T13:52:00Z</time></trkpt><trkpt lat="59.1010104027" lon="30.0345448963"><ele>73.20</ele><time>2026-04-22T13:52:14Z</time></trkpt><trkpt lat="59.1009951476" lon="30.0343997218"><ele>73.20</ele><time>2026-04-22T13:52:26Z</time></trkpt><trkpt lat="59.1009948123" lon="30.0342405494"><ele>72.72</ele><time>2026-04-22T13:52:38Z</time></trkpt><trkpt lat="59.1010053735" lon="30.0340961292"><ele>73.68</ele><time>2026-04-22T13:52:47Z</time></trkpt><trkpt lat="59.1010202095" lon="30.0340186805"><ele>73.68</ele><time>2026-04-22T13:52:51Z</time></trkpt><trkpt lat="59.1010462772" lon="30.0338087138"><ele>73.68</ele><time>2026-04-22T13:53:04Z</time></trkpt><trkpt lat="59.1010369733" lon="30.0337017607"><ele>73.68</ele><time>2026-04-22T13:53:15Z</time></trkpt><trkpt lat="59.1010102350" lon="30.0335378107"><ele>72.24</ele><time>2026-04-22T13:53:26Z</time></trkpt><trkpt lat="59.1010015178" lon="30.0335420016"><ele>72.24</ele><time>2026-04-22T13:53:27Z</time></trkpt><trkpt lat="59.1009757854" lon="30.0335096475"><ele>73.68</ele><time>2026-04-22T13:53:40Z</time></trkpt><trkpt lat="59.1009403300" lon="30.0334005989"><ele>74.16</ele><time>2026-04-22T13:53:54Z</time></trkpt><trkpt lat="59.1009171121" lon="30.0333109125"><ele>73.20</ele><time>2026-04-22T13:54:07Z</time></trkpt><trkpt lat="59.1009026114" lon="30.0333016086"><ele>73.20</ele><time>2026-04-22T13:54:19Z</time></trkpt><trkpt lat="59.1008790582" lon="30.0332650635"><ele>72.72</ele><time>2026-04-22T13:54:31Z</time></trkpt><trkpt lat="59.1008646414" lon="30.0332595315"><ele>72.72</ele><time>2026-04-22T13:54:42Z</time></trkpt><trkpt lat="59.1008638032" lon="30.0332455337"><ele>74.16</ele><time>2026-04-22T13:54:47Z</time></trkpt><trkpt lat="59.1008492187" lon="30.0332106650"><ele>72.24</ele><time>2026-04-22T13:54:58Z</time></trkpt><trkpt lat="59.1008496378" lon="30.0332042947"><ele>73.20</ele><time>2026-04-22T13:55:09Z</time></trkpt><trkpt lat="59.1008303594" lon="30.0331596192"><ele>74.64</ele><time>2026-04-22T13:55:25Z</time></trkpt><trkpt lat="59.1008297727" lon="30.0331436098"><ele>73.20</ele><time>2026-04-22T13:55:33Z</time></trkpt><trkpt lat="59.1008241568" lon="30.0331252534"><ele>73.20</ele><time>2026-04-22T13:55:44Z</time></trkpt><trkpt lat="59.1008157749" lon="30.0330961682"><ele>73.20</ele><time>2026-04-22T13:55:59Z</time></trkpt><trkpt lat="59.1007964965" lon="30.0330866128"><ele>72.24</ele><time>2026-04-22T13:56:11Z</time></trkpt><trkpt lat="59.1007907968" lon="30.0330824219"><ele>72.24</ele><time>2026-04-22T13:56:12Z</time></trkpt><trkpt lat="59.1007703450" lon="30.0330367405"><ele>72.24</ele><time>2026-04-22T13:56:21Z</time></trkpt><trkpt lat="59.1007277649" lon="30.0329821743"><ele>72.24</ele><time>2026-04-22T13:56:35Z</time></trkpt><trkpt lat="59.1007203050" lon="30.0329224952"><ele>72.24</ele><time>2026-04-22T13:56:44Z</time></trkpt><trkpt lat="59.1007122584" lon="30.0328693539"><ele>72.24</ele><time>2026-04-22T13:56:58Z</time></trkpt><trkpt lat="59.1006979253" lon="30.0327666756"><ele>73.20</ele><time>2026-04-22T13:57:12Z</time></trkpt><trkpt lat="59.1007002722" lon="30.0326700322"><ele>73.20</ele><time>2026-04-22T13:57:25Z</time></trkpt><trkpt lat="59.1007239092" lon="30.0325479917"><ele>73.20</ele><time>2026-04-22T13:57:37Z</time></trkpt><trkpt lat="59.1007286869" lon="30.0325119495"><ele>71.76</ele><time>2026-04-22T13:57:51Z</time></trkpt><trkpt lat="59.1007301956" lon="30.0324878097"><ele>71.76</ele><time>2026-04-22T13:58:05Z</time></trkpt><trkpt lat="59.1007048823" lon="30.0324374344"><ele>71.76</ele><time>2026-04-22T13:58:17Z</time></trkpt><trkpt lat="59.1006807424" lon="30.0324335787"><ele>71.76</ele><time>2026-04-22T13:58:28Z</time></trkpt><trkpt lat="59.1006648168" lon="30.0324043259"><ele>71.76</ele><time>2026-04-22T13:58:40Z</time></trkpt><trkpt lat="59.1006513219" lon="30.0323747378"><ele>71.27</ele><time>2026-04-22T13:58:54Z</time></trkpt><trkpt lat="59.1006487235" lon="30.0323707145"><ele>71.27</ele><time>2026-04-22T13:58:56Z</time></trkpt><trkpt lat="59.1006013658" lon="30.0322658569"><ele>71.27</ele><time>2026-04-22T13:59:09Z</time></trkpt><trkpt lat="59.1005603783" lon="30.0321521144"><ele>71.27</ele><time>2026-04-22T13:59:21Z</time></trkpt><trkpt lat="59.1005536728" lon="30.0321040023"><ele>72.72</ele><time>2026-04-22T13:59:26Z</time></trkpt><trkpt lat="59.1005514096" lon="30.0319630187"><ele>72.72</ele><time>2026-04-22T13:59:38Z</time></trkpt><trkpt lat="59.1005501524" lon="30.0319457520"><ele>72.72</ele><time>2026-04-22T13:59:39Z</time></trkpt><trkpt lat="59.1005385015" lon="30.0318456721"><ele>72.72</ele><time>2026-04-22T13:59:53Z</time></trkpt><trkpt lat="59.1005366575" lon="30.0317320134"><ele>72.72</ele><time>2026-04-22T14:00:04Z</time></trkpt><trkpt lat="59.1005614679" lon="30.0315436721"><ele>72.72</ele><time>2026-04-22T14:00:18Z</time></trkpt><trkpt lat="59.1005809139" lon="30.0314471126"><ele>71.76</ele><time>2026-04-22T14:00:38Z</time></trkpt><trkpt lat="59.1005426925" lon="30.0313033629"><ele>71.27</ele><time>2026-04-22T14:00:51Z</time></trkpt><trkpt lat="59.1005098354" lon="30.0312456954"><ele>71.27</ele><time>2026-04-22T14:01:02Z</time></trkpt><trkpt lat="59.1004666686" lon="30.0311676599"><ele>71.27</ele><time>2026-04-22T14:01:17Z</time></trkpt><trkpt lat="59.1004030500" lon="30.0310829189"><ele>72.24</ele><time>2026-04-22T14:01:29Z</time></trkpt><trkpt lat="59.1003862023" lon="30.0309493951"><ele>71.27</ele><time>2026-04-22T14:01:42Z</time></trkpt><trkpt lat="59.1003237572" lon="30.0307536777"><ele>72.24</ele><time>2026-04-22T14:01:56Z</time></trkpt><trkpt lat="59.1003145371" lon="30.0306206569"><ele>72.24</ele><time>2026-04-22T14:02:07Z</time></trkpt><trkpt lat="59.1003270261" lon="30.0305175595"><ele>72.24</ele><time>2026-04-22T14:02:21Z</time></trkpt><trkpt lat="59.1003276128" lon="30.0304976106"><ele>72.24</ele><time>2026-04-22T14:02:33Z</time></trkpt><trkpt lat="59.1003253497" lon="30.0304807629"><ele>72.72</ele><time>2026-04-22T14:02:52Z</time></trkpt><trkpt lat="59.1003165487" lon="30.0304405298"><ele>72.72</ele><time>2026-04-22T14:03:04Z</time></trkpt><trkpt lat="59.1002949234" lon="30.0303774979"><ele>70.79</ele><time>2026-04-22T14:03:20Z</time></trkpt><trkpt lat="59.1003030539" lon="30.0303027313"><ele>70.79</ele><time>2026-04-22T14:03:31Z</time></trkpt><trkpt lat="59.1002953425" lon="30.0301393680"><ele>70.79</ele><time>2026-04-22T14:03:45Z</time></trkpt><trkpt lat="59.1002910677" lon="30.0300741568"><ele>72.24</ele><time>2026-04-22T14:03:58Z</time></trkpt><trkpt lat="59.1002774052" lon="30.0299967080"><ele>72.24</ele><time>2026-04-22T14:04:16Z</time></trkpt><trkpt lat="59.1002726275" lon="30.0299471710"><ele>72.24</ele><time>2026-04-22T14:04:31Z</time></trkpt><trkpt lat="59.1002817638" lon="30.0298161618"><ele>72.72</ele><time>2026-04-22T14:04:45Z</time></trkpt><trkpt lat="59.1002838593" lon="30.0296838116"><ele>72.72</ele><time>2026-04-22T14:05:00Z</time></trkpt><trkpt lat="59.1002934985" lon="30.0294396468"><ele>72.72</ele><time>2026-04-22T14:05:13Z</time></trkpt><trkpt lat="59.1002967674" lon="30.0293756928"><ele>73.20</ele><time>2026-04-22T14:05:33Z</time></trkpt><trkpt lat="59.1002977733" lon="30.0293543190"><ele>73.68</ele><time>2026-04-22T14:05:53Z</time></trkpt><trkpt lat="59.1002854519" lon="30.0292743556"><ele>73.68</ele><time>2026-04-22T14:06:08Z</time></trkpt><trkpt lat="59.1002990305" lon="30.0291310251"><ele>73.68</ele><time>2026-04-22T14:06:23Z</time></trkpt><trkpt lat="59.1002909839" lon="30.0290123373"><ele>73.68</ele><time>2026-04-22T14:06:29Z</time></trkpt><trkpt lat="59.1002954263" lon="30.0288864411"><ele>73.68</ele><time>2026-04-22T14:06:40Z</time></trkpt><trkpt lat="59.1002655029" lon="30.0286859460"><ele>73.68</ele><time>2026-04-22T14:06:53Z</time></trkpt><trkpt lat="59.1002358310" lon="30.0284848642"><ele>73.68</ele><time>2026-04-22T14:07:05Z</time></trkpt><trkpt lat="59.1001774929" lon="30.0282206666"><ele>73.68</ele><time>2026-04-22T14:07:21Z</time></trkpt><trkpt lat="59.1001065820" lon="30.0280954409"><ele>73.68</ele><time>2026-04-22T14:07:33Z</time></trkpt><trkpt lat="59.1000404488" lon="30.0280589797"><ele>73.68</ele><time>2026-04-22T14:07:51Z</time></trkpt><trkpt lat="59.1000261158" lon="30.0280173216"><ele>73.68</ele><time>2026-04-22T14:08:06Z</time></trkpt><trkpt lat="59.0999863017" lon="30.0277925190"><ele>73.68</ele><time>2026-04-22T14:08:20Z</time></trkpt><trkpt lat="59.0999675263" lon="30.0277110469"><ele>72.24</ele><time>2026-04-22T14:08:31Z</time></trkpt><trkpt lat="59.0999200009" lon="30.0275870785"><ele>72.24</ele><time>2026-04-22T14:08:45Z</time></trkpt><trkpt lat="59.0998573042" lon="30.0273999944"><ele>71.27</ele><time>2026-04-22T14:08:58Z</time></trkpt><trkpt lat="59.0998522751" lon="30.0273134094"><ele>73.68</ele><time>2026-04-22T14:09:21Z</time></trkpt><trkpt lat="59.0998489223" lon="30.0271905307"><ele>73.68</ele><time>2026-04-22T14:09:36Z</time></trkpt><trkpt lat="59.0998376906" lon="30.0269875210"><ele>71.76</ele><time>2026-04-22T14:09:46Z</time></trkpt><trkpt lat="59.0998402052" lon="30.0269672368"><ele>73.68</ele><time>2026-04-22T14:09:48Z</time></trkpt><trkpt lat="59.0998446476" lon="30.0267869420"><ele>73.68</ele><time>2026-04-22T14:10:01Z</time></trkpt><trkpt lat="59.0998521913" lon="30.0265815016"><ele>73.68</ele><time>2026-04-22T14:10:13Z</time></trkpt><trkpt lat="59.0998859704" lon="30.0264414400"><ele>73.68</ele><time>2026-04-22T14:10:24Z</time></trkpt><trkpt lat="59.0998951904" lon="30.0263832696"><ele>72.24</ele><time>2026-04-22T14:10:33Z</time></trkpt><trkpt lat="59.0998899937" lon="30.0263456348"><ele>71.76</ele><time>2026-04-22T14:10:50Z</time></trkpt><trkpt lat="59.0998858865" lon="30.0263358280"><ele>73.20</ele><time>2026-04-22T14:11:01Z</time></trkpt><trkpt lat="59.0999170672" lon="30.0262443814"><ele>71.76</ele><time>2026-04-22T14:11:13Z</time></trkpt><trkpt lat="59.0999153070" lon="30.0261633284"><ele>71.27</ele><time>2026-04-22T14:11:23Z</time></trkpt><trkpt lat="59.0999089368" lon="30.0260676071"><ele>72.72</ele><time>2026-04-22T14:11:30Z</time></trkpt><trkpt lat="59.0998987947" lon="30.0259776693"><ele>72.72</ele><time>2026-04-22T14:11:42Z</time></trkpt><trkpt lat="59.0998827852" lon="30.0259246118"><ele>71.27</ele><time>2026-04-22T14:11:49Z</time></trkpt><trkpt lat="59.0998358466" lon="30.0258392841"><ele>71.27</ele><time>2026-04-22T14:12:05Z</time></trkpt><trkpt lat="59.0997397900" lon="30.0257431436"><ele>71.27</ele><time>2026-04-22T14:12:18Z</time></trkpt><trkpt lat="59.0996816196" lon="30.0256497692"><ele>71.27</ele><time>2026-04-22T14:12:30Z</time></trkpt><trkpt lat="59.0996353514" lon="30.0255579874"><ele>71.27</ele><time>2026-04-22T14:12:41Z</time></trkpt><trkpt lat="59.0995708108" lon="30.0254047662"><ele>70.79</ele><time>2026-04-22T14:12:53Z</time></trkpt><trkpt lat="59.0995513648" lon="30.0253360346"><ele>70.79</ele><time>2026-04-22T14:13:01Z</time></trkpt><trkpt lat="59.0995500237" lon="30.0252688117"><ele>72.24</ele><time>2026-04-22T14:13:05Z</time></trkpt><trkpt lat="59.0994978044" lon="30.0251730066"><ele>72.24</ele><time>2026-04-22T14:13:17Z</time></trkpt><trkpt lat="59.0995091200" lon="30.0251031015"><ele>70.79</ele><time>2026-04-22T14:13:23Z</time></trkpt><trkpt lat="59.0995273925" lon="30.0250455178"><ele>71.76</ele><time>2026-04-22T14:13:36Z</time></trkpt><trkpt lat="59.0995668713" lon="30.0249873474"><ele>71.76</ele><time>2026-04-22T14:13:46Z</time></trkpt><trkpt lat="59.0995708946" lon="30.0249765348"><ele>70.31</ele><time>2026-04-22T14:14:00Z</time></trkpt><trkpt lat="59.0995492693" lon="30.0249260757"><ele>70.79</ele><time>2026-04-22T14:14:13Z</time></trkpt><trkpt lat="59.0995312482" lon="30.0248767901"><ele>72.72</ele><time>2026-04-22T14:14:33Z</time></trkpt><trkpt lat="59.0995423961" lon="30.0246465392"><ele>72.72</ele><time>2026-04-22T14:14:45Z</time></trkpt><trkpt lat="59.0995418094" lon="30.0245736167"><ele>72.72</ele><time>2026-04-22T14:14:57Z</time></trkpt><trkpt lat="59.0995422285" lon="30.0245723594"><ele>71.27</ele><time>2026-04-22T14:14:59Z</time></trkpt><trkpt lat="59.0995579027" lon="30.0245545898"><ele>73.20</ele><time>2026-04-22T14:15:10Z</time></trkpt><trkpt lat="59.0995607525" lon="30.0245581940"><ele>71.76</ele><time>2026-04-22T14:15:15Z</time></trkpt><trkpt lat="59.0995672904" lon="30.0245613791"><ele>72.72</ele><time>2026-04-22T14:15:28Z</time></trkpt><trkpt lat="59.0995726548" lon="30.0245215651"><ele>72.72</ele><time>2026-04-22T14:15:43Z</time></trkpt><trkpt lat="59.0995817911" lon="30.0245155301"><ele>72.72</ele><time>2026-04-22T14:15:57Z</time></trkpt><trkpt lat="59.0995755047" lon="30.0245255046"><ele>71.27</ele><time>2026-04-22T14:16:03Z</time></trkpt><trkpt lat="59.0995047614" lon="30.0245698448"><ele>71.27</ele><time>2026-04-22T14:16:16Z</time></trkpt><trkpt lat="59.0994681325" lon="30.0245811604"><ele>72.24</ele><time>2026-04-22T14:16:25Z</time></trkpt><trkpt lat="59.0994672105" lon="30.0245796517"><ele>72.24</ele><time>2026-04-22T14:16:27Z</time></trkpt><trkpt lat="59.0994293243" lon="30.0245938171"><ele>72.72</ele><time>2026-04-22T14:16:43Z</time></trkpt><trkpt lat="59.0993636940" lon="30.0246480480"><ele>73.20</ele><time>2026-04-22T14:16:58Z</time></trkpt><trkpt lat="59.0992651228" lon="30.0246961601"><ele>71.76</ele><time>2026-04-22T14:17:08Z</time></trkpt><trkpt lat="59.0992448386" lon="30.0247338787"><ele>71.76</ele><time>2026-04-22T14:17:22Z</time></trkpt><trkpt lat="59.0991587564" lon="30.0248251576"><ele>71.76</ele><time>2026-04-22T14:17:43Z</time></trkpt><trkpt lat="59.0991236363" lon="30.0248795561"><ele>71.76</ele><time>2026-04-22T14:18:00Z</time></trkpt><trkpt lat="59.0990964789" lon="30.0249486230"><ele>71.76</ele><time>2026-04-22T14:18:16Z</time></trkpt><trkpt lat="59.0990955569" lon="30.0249741878"><ele>71.27</ele><time>2026-04-22T14:18:30Z</time></trkpt><trkpt lat="59.0990940481" lon="30.0250240602"><ele>72.24</ele><time>2026-04-22T14:18:47Z</time></trkpt><trkpt lat="59.0990823973" lon="30.0250356272"><ele>72.24</ele><time>2026-04-22T14:19:09Z</time></trkpt><trkpt lat="59.0990815591" lon="30.0250583421"><ele>71.27</ele><time>2026-04-22T14:19:23Z</time></trkpt><trkpt lat="59.0990443435" lon="30.0250507984"><ele>72.72</ele><time>2026-04-22T14:19:33Z</time></trkpt><trkpt lat="59.0990154259" lon="30.0249916222"><ele>72.72</ele><time>2026-04-22T14:19:38Z</time></trkpt><trkpt lat="59.0989911184" lon="30.0247469544"><ele>72.72</ele><time>2026-04-22T14:19:53Z</time></trkpt><trkpt lat="59.0989927948" lon="30.0247063860"><ele>71.76</ele><time>2026-04-22T14:19:56Z</time></trkpt><trkpt lat="59.0990317706" lon="30.0246421807"><ele>71.76</ele><time>2026-04-22T14:20:13Z</time></trkpt><trkpt lat="59.0990370512" lon="30.0245999359"><ele>71.76</ele><time>2026-04-22T14:20:34Z</time></trkpt><trkpt lat="59.0990742669" lon="30.0245078187"><ele>71.76</ele><time>2026-04-22T14:20:40Z</time></trkpt><trkpt lat="59.0992194414" lon="30.0244233292"><ele>71.76</ele><time>2026-04-22T14:20:55Z</time></trkpt><trkpt lat="59.0992351994" lon="30.0243623927"><ele>71.76</ele><time>2026-04-22T14:21:07Z</time></trkpt><trkpt lat="59.0992428269" lon="30.0242528412"><ele>71.27</ele><time>2026-04-22T14:21:21Z</time></trkpt><trkpt lat="59.0992586687" lon="30.0241787452"><ele>72.24</ele><time>2026-04-22T14:21:30Z</time></trkpt><trkpt lat="59.0992811322" lon="30.0240068324"><ele>72.24</ele><time>2026-04-22T14:21:44Z</time></trkpt><trkpt lat="59.0992932022" lon="30.0239575468"><ele>70.79</ele><time>2026-04-22T14:21:49Z</time></trkpt><trkpt lat="59.0992943756" lon="30.0239059143"><ele>70.79</ele><time>2026-04-22T14:22:03Z</time></trkpt><trkpt lat="59.0992667153" lon="30.0237045810"><ele>70.79</ele><time>2026-04-22T14:22:14Z</time></trkpt><trkpt lat="59.0992428269" lon="30.0235722307"><ele>70.79</ele><time>2026-04-22T14:22:27Z</time></trkpt><trkpt lat="59.0992033482" lon="30.0234860647"><ele>70.79</ele><time>2026-04-22T14:22:39Z</time></trkpt><trkpt lat="59.0991595946" lon="30.0233504456"><ele>70.79</ele><time>2026-04-22T14:22:51Z</time></trkpt><trkpt lat="59.0991473570" lon="30.0232924428"><ele>70.79</ele><time>2026-04-22T14:23:04Z</time></trkpt><trkpt lat="59.0991376340" lon="30.0232628547"><ele>70.79</ele><time>2026-04-22T14:23:30Z</time></trkpt><trkpt lat="59.0991284139" lon="30.0232322607"><ele>72.24</ele><time>2026-04-22T14:23:48Z</time></trkpt><trkpt lat="59.0990844928" lon="30.0230236351"><ele>72.24</ele><time>2026-04-22T14:24:01Z</time></trkpt><trkpt lat="59.0990657173" lon="30.0229463540"><ele>72.24</ele><time>2026-04-22T14:24:10Z</time></trkpt><trkpt lat="59.0990523063" lon="30.0228590146"><ele>72.24</ele><time>2026-04-22T14:24:20Z</time></trkpt><trkpt lat="59.0990555752" lon="30.0227383990"><ele>72.24</ele><time>2026-04-22T14:24:31Z</time></trkpt><trkpt lat="59.0990199521" lon="30.0225977506"><ele>72.24</ele><time>2026-04-22T14:24:43Z</time></trkpt><trkpt lat="59.0989898611" lon="30.0224865228"><ele>72.24</ele><time>2026-04-22T14:24:55Z</time></trkpt><trkpt lat="59.0989569202" lon="30.0223737862"><ele>72.72</ele><time>2026-04-22T14:25:06Z</time></trkpt><trkpt lat="59.0989061259" lon="30.0222271867"><ele>72.72</ele><time>2026-04-22T14:25:19Z</time></trkpt><trkpt lat="59.0988636296" lon="30.0220763963"><ele>72.72</ele><time>2026-04-22T14:25:32Z</time></trkpt><trkpt lat="59.0988586005" lon="30.0220559444"><ele>70.79</ele><time>2026-04-22T14:25:34Z</time></trkpt><trkpt lat="59.0988444351" lon="30.0219979417"><ele>70.79</ele><time>2026-04-22T14:25:43Z</time></trkpt><trkpt lat="59.0988415852" lon="30.0218686927"><ele>71.76</ele><time>2026-04-22T14:25:51Z</time></trkpt><trkpt lat="59.0988380648" lon="30.0218008831"><ele>71.76</ele><time>2026-04-22T14:26:04Z</time></trkpt><trkpt lat="59.0988383163" lon="30.0217804313"><ele>73.20</ele><time>2026-04-22T14:26:19Z</time></trkpt><trkpt lat="59.0988344606" lon="30.0217412040"><ele>73.20</ele><time>2026-04-22T14:26:34Z</time></trkpt><trkpt lat="59.0988298506" lon="30.0217194948"><ele>73.20</ele><time>2026-04-22T14:26:37Z</time></trkpt><trkpt lat="59.0987938922" lon="30.0214742403"><ele>73.20</ele><time>2026-04-22T14:26:49Z</time></trkpt><trkpt lat="59.0987934731" lon="30.0214489270"><ele>73.20</ele><time>2026-04-22T14:26:50Z</time></trkpt><trkpt lat="59.0987511445" lon="30.0212621782"><ele>71.76</ele><time>2026-04-22T14:27:02Z</time></trkpt><trkpt lat="59.0987340454" lon="30.0212136470"><ele>73.20</ele><time>2026-04-22T14:27:09Z</time></trkpt><trkpt lat="59.0987100732" lon="30.0211201049"><ele>73.20</ele><time>2026-04-22T14:27:17Z</time></trkpt><trkpt lat="59.0987117495" lon="30.0209574122"><ele>72.24</ele><time>2026-04-22T14:27:31Z</time></trkpt><trkpt lat="59.0986819938" lon="30.0207392313"><ele>73.20</ele><time>2026-04-22T14:27:42Z</time></trkpt><trkpt lat="59.0986754559" lon="30.0207228865"><ele>73.20</ele><time>2026-04-22T14:27:43Z</time></trkpt><trkpt lat="59.0986002702" lon="30.0205780473"><ele>73.20</ele><time>2026-04-22T14:27:56Z</time></trkpt><trkpt lat="59.0985933971" lon="30.0205062982"><ele>73.20</ele><time>2026-04-22T14:28:07Z</time></trkpt><trkpt lat="59.0985957440" lon="30.0203894544"><ele>73.20</ele><time>2026-04-22T14:28:19Z</time></trkpt><trkpt lat="59.0985875297" lon="30.0202726945"><ele>73.20</ele><time>2026-04-22T14:28:32Z</time></trkpt><trkpt lat="59.0985892899" lon="30.0201913901"><ele>73.68</ele><time>2026-04-22T14:28:45Z</time></trkpt><trkpt lat="59.0985841770" lon="30.0201553479"><ele>72.24</ele><time>2026-04-22T14:28:53Z</time></trkpt><trkpt lat="59.0985753760" lon="30.0201043859"><ele>72.24</ele><time>2026-04-22T14:29:04Z</time></trkpt><trkpt lat="59.0985681675" lon="30.0200863648"><ele>71.27</ele><time>2026-04-22T14:29:34Z</time></trkpt><trkpt lat="59.0985674970" lon="30.0200817548"><ele>72.72</ele><time>2026-04-22T14:29:37Z</time></trkpt><trkpt lat="59.0985664912" lon="30.0200791564"><ele>73.68</ele><time>2026-04-22T14:29:54Z</time></trkpt><trkpt lat="59.0985648986" lon="30.0200848561"><ele>73.68</ele><time>2026-04-22T14:30:17Z</time></trkpt><trkpt lat="59.0985663235" lon="30.0200812519"><ele>74.16</ele><time>2026-04-22T14:30:34Z</time></trkpt><trkpt lat="59.0985208098" lon="30.0199730415"><ele>72.72</ele><time>2026-04-22T14:30:46Z</time></trkpt><trkpt lat="59.0984928980" lon="30.0197941717"><ele>74.16</ele><time>2026-04-22T14:30:56Z</time></trkpt><trkpt lat="59.0984655730" lon="30.0197323970"><ele>72.72</ele><time>2026-04-22T14:31:02Z</time></trkpt><trkpt lat="59.0984275192" lon="30.0196018070"><ele>72.72</ele><time>2026-04-22T14:31:14Z</time></trkpt><trkpt lat="59.0984234121" lon="30.0195128750"><ele>72.72</ele><time>2026-04-22T14:31:25Z</time></trkpt><trkpt lat="59.0983867832" lon="30.0194166508"><ele>74.16</ele><time>2026-04-22T14:31:39Z</time></trkpt><trkpt lat="59.0983715281" lon="30.0193739031"><ele>74.16</ele><time>2026-04-22T14:31:52Z</time></trkpt><trkpt lat="59.0983718634" lon="30.0192972925"><ele>74.16</ele><time>2026-04-22T14:32:02Z</time></trkpt><trkpt lat="59.0983679239" lon="30.0192367751"><ele>74.16</ele><time>2026-04-22T14:32:16Z</time></trkpt><trkpt lat="59.0983549319" lon="30.0192040857"><ele>72.72</ele><time>2026-04-22T14:32:28Z</time></trkpt><trkpt lat="59.0983313788" lon="30.0191413052"><ele>72.72</ele><time>2026-04-22T14:32:39Z</time></trkpt><trkpt lat="59.0983230807" lon="30.0190008245"><ele>75.12</ele><time>2026-04-22T14:32:51Z</time></trkpt><trkpt lat="59.0983443707" lon="30.0189180113"><ele>75.12</ele><time>2026-04-22T14:33:05Z</time></trkpt><trkpt lat="59.0983438678" lon="30.0188947096"><ele>73.68</ele><time>2026-04-22T14:33:11Z</time></trkpt><trkpt lat="59.0983254276" lon="30.0187899359"><ele>73.68</ele><time>2026-04-22T14:33:22Z</time></trkpt><trkpt lat="59.0983297024" lon="30.0187511276"><ele>74.64</ele><time>2026-04-22T14:33:25Z</time></trkpt><trkpt lat="59.0983280260" lon="30.0187142473"><ele>73.20</ele><time>2026-04-22T14:33:29Z</time></trkpt><trkpt lat="59.0982975997" lon="30.0185555778"><ele>73.20</ele><time>2026-04-22T14:33:41Z</time></trkpt><trkpt lat="59.0982649941" lon="30.0184862595"><ele>73.20</ele><time>2026-04-22T14:33:51Z</time></trkpt><trkpt lat="59.0982522536" lon="30.0183829945"><ele>73.20</ele><time>2026-04-22T14:34:01Z</time></trkpt><trkpt lat="59.0982483141" lon="30.0182602834"><ele>72.72</ele><time>2026-04-22T14:34:24Z</time></trkpt><trkpt lat="59.0982283652" lon="30.0181559287"><ele>74.64</ele><time>2026-04-22T14:34:34Z</time></trkpt><trkpt lat="59.0982188936" lon="30.0180196390"><ele>73.20</ele><time>2026-04-22T14:34:47Z</time></trkpt><trkpt lat="59.0981851984" lon="30.0179061480"><ele>73.20</ele><time>2026-04-22T14:34:59Z</time></trkpt><trkpt lat="59.0981385950" lon="30.0177323073"><ele>73.20</ele><time>2026-04-22T14:35:12Z</time></trkpt><trkpt lat="59.0981013793" lon="30.0175888930"><ele>73.20</ele><time>2026-04-22T14:35:24Z</time></trkpt><trkpt lat="59.0980918240" lon="30.0175597239"><ele>72.24</ele><time>2026-04-22T14:35:44Z</time></trkpt><trkpt lat="59.0980915725" lon="30.0175588019"><ele>72.24</ele><time>2026-04-22T14:36:07Z</time></trkpt><trkpt lat="59.0980872139" lon="30.0175444689"><ele>71.76</ele><time>2026-04-22T14:36:22Z</time></trkpt><trkpt lat="59.0980948415" lon="30.0174332410"><ele>73.20</ele><time>2026-04-22T14:36:33Z</time></trkpt><trkpt lat="59.0980781615" lon="30.0173135474"><ele>74.16</ele><time>2026-04-22T14:36:46Z</time></trkpt><trkpt lat="59.0980704501" lon="30.0172071811"><ele>74.16</ele><time>2026-04-22T14:37:00Z</time></trkpt><trkpt lat="59.0980195720" lon="30.0169988908"><ele>74.16</ele><time>2026-04-22T14:37:14Z</time></trkpt><trkpt lat="59.0979969408" lon="30.0168692227"><ele>74.16</ele><time>2026-04-22T14:37:26Z</time></trkpt><trkpt lat="59.0979946777" lon="30.0168542191"><ele>73.20</ele><time>2026-04-22T14:37:29Z</time></trkpt><trkpt lat="59.0979734715" lon="30.0167871639"><ele>72.24</ele><time>2026-04-22T14:37:45Z</time></trkpt><trkpt lat="59.0979635809" lon="30.0167390518"><ele>71.76</ele><time>2026-04-22T14:37:56Z</time></trkpt><trkpt lat="59.0979367588" lon="30.0166785344"><ele>71.76</ele><time>2026-04-22T14:38:09Z</time></trkpt><trkpt lat="59.0979180671" lon="30.0166175980"><ele>72.72</ele><time>2026-04-22T14:38:21Z</time></trkpt><trkpt lat="59.0978843719" lon="30.0165518839"><ele>71.27</ele><time>2026-04-22T14:38:27Z</time></trkpt><trkpt lat="59.0978578851" lon="30.0164720044"><ele>73.68</ele><time>2026-04-22T14:38:41Z</time></trkpt><trkpt lat="59.0978302248" lon="30.0163987465"><ele>72.24</ele><time>2026-04-22T14:38:50Z</time></trkpt><trkpt lat="59.0977987926" lon="30.0162553322"><ele>72.72</ele><time>2026-04-22T14:39:05Z</time></trkpt><trkpt lat="59.0977981221" lon="30.0162508897"><ele>71.27</ele><time>2026-04-22T14:39:08Z</time></trkpt><trkpt lat="59.0977826994" lon="30.0161989219"><ele>72.72</ele><time>2026-04-22T14:39:22Z</time></trkpt><trkpt lat="59.0977759100" lon="30.0161799788"><ele>71.27</ele><time>2026-04-22T14:39:29Z</time></trkpt><trkpt lat="59.0977740660" lon="30.0161422603"><ele>73.20</ele><time>2026-04-22T14:39:43Z</time></trkpt><trkpt lat="59.0977603197" lon="30.0160927232"><ele>72.24</ele><time>2026-04-22T14:39:55Z</time></trkpt><trkpt lat="59.0977490041" lon="30.0160533283"><ele>71.76</ele><time>2026-04-22T14:40:05Z</time></trkpt><trkpt lat="59.0977422148" lon="30.0160380732"><ele>71.76</ele><time>2026-04-22T14:40:18Z</time></trkpt><trkpt lat="59.0977439750" lon="30.0160281826"><ele>71.76</ele><time>2026-04-22T14:40:28Z</time></trkpt><trkpt lat="59.0977365989" lon="30.0159691740"><ele>72.72</ele><time>2026-04-22T14:40:32Z</time></trkpt><trkpt lat="59.0977439750" lon="30.0158363208"><ele>72.72</ele><time>2026-04-22T14:40:45Z</time></trkpt><trkpt lat="59.0977526922" lon="30.0157235842"><ele>71.76</ele><time>2026-04-22T14:41:04Z</time></trkpt><trkpt lat="59.0977510996" lon="30.0156988576"><ele>73.20</ele><time>2026-04-22T14:41:08Z</time></trkpt><trkpt lat="59.0977492556" lon="30.0156149548"><ele>72.24</ele><time>2026-04-22T14:41:34Z</time></trkpt><trkpt lat="59.0977469925" lon="30.0155815948"><ele>72.24</ele><time>2026-04-22T14:41:49Z</time></trkpt><trkpt lat="59.0977582242" lon="30.0154594705"><ele>71.27</ele><time>2026-04-22T14:42:04Z</time></trkpt><trkpt lat="59.0977489203" lon="30.0153793395"><ele>70.79</ele><time>2026-04-22T14:42:16Z</time></trkpt><trkpt lat="59.0977264568" lon="30.0152715482"><ele>72.72</ele><time>2026-04-22T14:42:29Z</time></trkpt><trkpt lat="59.0977503452" lon="30.0151659362"><ele>71.76</ele><time>2026-04-22T14:42:43Z</time></trkpt><trkpt lat="59.0977548715" lon="30.0151637569"><ele>71.76</ele><time>2026-04-22T14:42:47Z</time></trkpt><trkpt lat="59.0977624152" lon="30.0149992201"><ele>71.76</ele><time>2026-04-22T14:42:59Z</time></trkpt><trkpt lat="59.0977580566" lon="30.0149193406"><ele>71.27</ele><time>2026-04-22T14:43:12Z</time></trkpt><trkpt lat="59.0977536980" lon="30.0149001461"><ele>72.24</ele><time>2026-04-22T14:43:27Z</time></trkpt><trkpt lat="59.0977403708" lon="30.0148299057"><ele>72.72</ele><time>2026-04-22T14:43:39Z</time></trkpt><trkpt lat="59.0977313183" lon="30.0147503614"><ele>71.76</ele><time>2026-04-22T14:43:50Z</time></trkpt><trkpt lat="59.0976723935" lon="30.0146297459"><ele>71.76</ele><time>2026-04-22T14:44:03Z</time></trkpt><trkpt lat="59.0976297297" lon="30.0144358724"><ele>71.76</ele><time>2026-04-22T14:44:15Z</time></trkpt><trkpt lat="59.0976174083" lon="30.0144119840"><ele>72.72</ele><time>2026-04-22T14:44:17Z</time></trkpt><trkpt lat="59.0976231080" lon="30.0143062882"><ele>72.72</ele><time>2026-04-22T14:44:31Z</time></trkpt><trkpt lat="59.0976101160" lon="30.0141319446"><ele>72.72</ele><time>2026-04-22T14:44:43Z</time></trkpt><trkpt lat="59.0976035781" lon="30.0140722655"><ele>71.76</ele><time>2026-04-22T14:44:46Z</time></trkpt><trkpt lat="59.0975717269" lon="30.0140249915"><ele>72.24</ele><time>2026-04-22T14:44:58Z</time></trkpt><trkpt lat="59.0975378640" lon="30.0139234029"><ele>72.72</ele><time>2026-04-22T14:45:09Z</time></trkpt><trkpt lat="59.0975200105" lon="30.0138468761"><ele>71.27</ele><time>2026-04-22T14:45:14Z</time></trkpt><trkpt lat="59.0974967089" lon="30.0137206446"><ele>71.27</ele><time>2026-04-22T14:45:26Z</time></trkpt><trkpt lat="59.0974784363" lon="30.0136796571"><ele>73.68</ele><time>2026-04-22T14:45:34Z</time></trkpt><trkpt lat="59.0974190924" lon="30.0135022122"><ele>73.68</ele><time>2026-04-22T14:45:45Z</time></trkpt><trkpt lat="59.0973683819" lon="30.0133701134"><ele>73.68</ele><time>2026-04-22T14:45:57Z</time></trkpt><trkpt lat="59.0973206051" lon="30.0132808462"><ele>72.72</ele><time>2026-04-22T14:46:10Z</time></trkpt><trkpt lat="59.0972771868" lon="30.0131189078"><ele>72.72</ele><time>2026-04-22T14:46:23Z</time></trkpt><trkpt lat="59.0972478501" lon="30.0129581429"><ele>71.76</ele><time>2026-04-22T14:46:35Z</time></trkpt><trkpt lat="59.0972238779" lon="30.0128939375"><ele>72.72</ele><time>2026-04-22T14:46:41Z</time></trkpt><trkpt lat="59.0972128138" lon="30.0127582345"><ele>72.24</ele><time>2026-04-22T14:46:52Z</time></trkpt><trkpt lat="59.0972058568" lon="30.0127401296"><ele>72.24</ele><time>2026-04-22T14:46:53Z</time></trkpt><trkpt lat="59.0971841477" lon="30.0126745831"><ele>72.24</ele><time>2026-04-22T14:47:05Z</time></trkpt><trkpt lat="59.0971733350" lon="30.0126025826"><ele>72.24</ele><time>2026-04-22T14:47:18Z</time></trkpt><trkpt lat="59.0971606784" lon="30.0124685559"><ele>72.24</ele><time>2026-04-22T14:47:29Z</time></trkpt><trkpt lat="59.0971294977" lon="30.0123253930"><ele>73.68</ele><time>2026-04-22T14:47:42Z</time></trkpt><trkpt lat="59.0971085429" lon="30.0122495368"><ele>74.64</ele><time>2026-04-22T14:47:54Z</time></trkpt><trkpt lat="59.0971161705" lon="30.0121950544"><ele>74.64</ele><time>2026-04-22T14:48:03Z</time></trkpt><trkpt lat="59.0971087944" lon="30.0120631233"><ele>72.72</ele><time>2026-04-22T14:48:11Z</time></trkpt><trkpt lat="59.0970691480" lon="30.0118595269"><ele>74.16</ele><time>2026-04-22T14:48:25Z</time></trkpt><trkpt lat="59.0970220417" lon="30.0117014442"><ele>74.16</ele><time>2026-04-22T14:48:38Z</time></trkpt><trkpt lat="59.0969846584" lon="30.0115690939"><ele>73.20</ele><time>2026-04-22T14:48:52Z</time></trkpt><trkpt lat="59.0969772823" lon="30.0115005299"><ele>73.20</ele><time>2026-04-22T14:49:07Z</time></trkpt><trkpt lat="59.0969528910" lon="30.0112526771"><ele>74.16</ele><time>2026-04-22T14:49:22Z</time></trkpt><trkpt lat="59.0969623625" lon="30.0110412017"><ele>74.16</ele><time>2026-04-22T14:49:33Z</time></trkpt><trkpt lat="59.0969050303" lon="30.0107552111"><ele>74.16</ele><time>2026-04-22T14:49:46Z</time></trkpt><trkpt lat="59.0969004203" lon="30.0105612539"><ele>74.16</ele><time>2026-04-22T14:49:58Z</time></trkpt><trkpt lat="59.0968849137" lon="30.0105304923"><ele>74.16</ele><time>2026-04-22T14:50:08Z</time></trkpt><trkpt lat="59.0968692396" lon="30.0104875769"><ele>74.16</ele><time>2026-04-22T14:50:22Z</time></trkpt><trkpt lat="59.0968875960" lon="30.0103621837"><ele>74.16</ele><time>2026-04-22T14:50:34Z</time></trkpt><trkpt lat="59.0968722571" lon="30.0102890935"><ele>72.72</ele><time>2026-04-22T14:50:45Z</time></trkpt><trkpt lat="59.0968833212" lon="30.0102348626"><ele>72.72</ele><time>2026-04-22T14:50:58Z</time></trkpt><trkpt lat="59.0968745202" lon="30.0101627782"><ele>72.24</ele><time>2026-04-22T14:51:21Z</time></trkpt><trkpt lat="59.0968868416" lon="30.0099875964"><ele>73.68</ele><time>2026-04-22T14:51:32Z</time></trkpt><trkpt lat="59.0968897752" lon="30.0098401587"><ele>73.68</ele><time>2026-04-22T14:51:50Z</time></trkpt><trkpt lat="59.0968811419" lon="30.0096736941"><ele>73.68</ele><time>2026-04-22T14:52:01Z</time></trkpt><trkpt lat="59.0968653001" lon="30.0094969198"><ele>74.16</ele><time>2026-04-22T14:52:13Z</time></trkpt><trkpt lat="59.0968630370" lon="30.0093260966"><ele>74.16</ele><time>2026-04-22T14:52:24Z</time></trkpt><trkpt lat="59.0967882704" lon="30.0091076642"><ele>74.16</ele><time>2026-04-22T14:52:37Z</time></trkpt><trkpt lat="59.0967543237" lon="30.0089962687"><ele>74.16</ele><time>2026-04-22T14:52:48Z</time></trkpt><trkpt lat="59.0966994222" lon="30.0088872202"><ele>74.16</ele><time>2026-04-22T14:53:00Z</time></trkpt><trkpt lat="59.0966593567" lon="30.0088108610"><ele>74.16</ele><time>2026-04-22T14:53:10Z</time></trkpt><trkpt lat="59.0966275893" lon="30.0087381061"><ele>74.16</ele><time>2026-04-22T14:53:20Z</time></trkpt><trkpt lat="59.0965027828" lon="30.0085394550"><ele>74.16</ele><time>2026-04-22T14:53:34Z</time></trkpt><trkpt lat="59.0964271780" lon="30.0083957054"><ele>74.16</ele><time>2026-04-22T14:53:46Z</time></trkpt><trkpt lat="59.0964208916" lon="30.0082722399"><ele>73.20</ele><time>2026-04-22T14:53:53Z</time></trkpt><trkpt lat="59.0964203887" lon="30.0081851520"><ele>74.64</ele><time>2026-04-22T14:53:59Z</time></trkpt><trkpt lat="59.0964142699" lon="30.0081538036"><ele>74.64</ele><time>2026-04-22T14:54:00Z</time></trkpt><trkpt lat="59.0964130126" lon="30.0079238042"><ele>74.64</ele><time>2026-04-22T14:54:12Z</time></trkpt><trkpt lat="59.0963988472" lon="30.0077758636"><ele>74.64</ele><time>2026-04-22T14:54:25Z</time></trkpt><trkpt lat="59.0964545030" lon="30.0076064654"><ele>74.64</ele><time>2026-04-22T14:54:38Z</time></trkpt><trkpt lat="59.0964441095" lon="30.0074754562"><ele>73.20</ele><time>2026-04-22T14:54:47Z</time></trkpt><trkpt lat="59.0964375716" lon="30.0073703472"><ele>74.16</ele><time>2026-04-22T14:54:55Z</time></trkpt><trkpt lat="59.0963818319" lon="30.0070892181"><ele>74.64</ele><time>2026-04-22T14:55:07Z</time></trkpt><trkpt lat="59.0963764675" lon="30.0068418682"><ele>74.64</ele><time>2026-04-22T14:55:22Z</time></trkpt><trkpt lat="59.0963390842" lon="30.0067469012"><ele>74.64</ele><time>2026-04-22T14:55:35Z</time></trkpt><trkpt lat="59.0963358153" lon="30.0066820253"><ele>75.12</ele><time>2026-04-22T14:55:49Z</time></trkpt><trkpt lat="59.0963118430" lon="30.0066314824"><ele>75.12</ele><time>2026-04-22T14:56:01Z</time></trkpt><trkpt lat="59.0962576959" lon="30.0066428818"><ele>75.12</ele><time>2026-04-22T14:56:11Z</time></trkpt><trkpt lat="59.0961173829" lon="30.0066304766"><ele>74.16</ele><time>2026-04-22T14:56:22Z</time></trkpt><trkpt lat="59.0960820951" lon="30.0064801052"><ele>75.12</ele><time>2026-04-22T14:56:35Z</time></trkpt><trkpt lat="59.0960788261" lon="30.0064669456"><ele>75.12</ele><time>2026-04-22T14:56:36Z</time></trkpt><trkpt lat="59.0960760601" lon="30.0063324999"><ele>75.12</ele><time>2026-04-22T14:56:49Z</time></trkpt><trkpt lat="59.0960779879" lon="30.0062594935"><ele>74.16</ele><time>2026-04-22T14:56:56Z</time></trkpt><trkpt lat="59.0960376710" lon="30.0061645266"><ele>74.16</ele><time>2026-04-22T14:57:10Z</time></trkpt><trkpt lat="59.0959339030" lon="30.0060735829"><ele>74.16</ele><time>2026-04-22T14:57:22Z</time></trkpt><trkpt lat="59.0958056599" lon="30.0060348585"><ele>74.16</ele><time>2026-04-22T14:57:34Z</time></trkpt><trkpt lat="59.0957794245" lon="30.0060306676"><ele>74.64</ele><time>2026-04-22T14:57:49Z</time></trkpt><trkpt lat="59.0957750659" lon="30.0060401391"><ele>74.64</ele><time>2026-04-22T14:57:51Z</time></trkpt><trkpt lat="59.0956940129" lon="30.0059605110"><ele>74.64</ele><time>2026-04-22T14:58:04Z</time></trkpt><trkpt lat="59.0956733935" lon="30.0058704894"><ele>74.64</ele><time>2026-04-22T14:58:09Z</time></trkpt><trkpt lat="59.0956514329" lon="30.0057223812"><ele>74.64</ele><time>2026-04-22T14:58:16Z</time></trkpt><trkpt lat="59.0956541151" lon="30.0056727603"><ele>74.64</ele><time>2026-04-22T14:58:18Z</time></trkpt><trkpt lat="59.0956091043" lon="30.0055107381"><ele>74.64</ele><time>2026-04-22T14:58:27Z</time></trkpt><trkpt lat="59.0955945197" lon="30.0054278411"><ele>74.64</ele><time>2026-04-22T14:58:41Z</time></trkpt><trkpt lat="59.0955869760" lon="30.0054308586"><ele>74.64</ele><time>2026-04-22T14:58:55Z</time></trkpt><trkpt lat="59.0955623332" lon="30.0053544994"><ele>74.64</ele><time>2026-04-22T14:59:07Z</time></trkpt><trkpt lat="59.0955343377" lon="30.0052002724"><ele>73.68</ele><time>2026-04-22T14:59:16Z</time></trkpt><trkpt lat="59.0954774246" lon="30.0049250107"><ele>73.68</ele><time>2026-04-22T14:59:30Z</time></trkpt><trkpt lat="59.0954615828" lon="30.0048603863"><ele>73.68</ele><time>2026-04-22T14:59:33Z</time></trkpt><trkpt lat="59.0953973774" lon="30.0045428798"><ele>73.68</ele><time>2026-04-22T14:59:49Z</time></trkpt><trkpt lat="59.0953857265" lon="30.0044901576"><ele>73.68</ele><time>2026-04-22T15:00:00Z</time></trkpt><trkpt lat="59.0953609161" lon="30.0043297280"><ele>73.68</ele><time>2026-04-22T15:00:14Z</time></trkpt><trkpt lat="59.0953562222" lon="30.0043329969"><ele>73.68</ele><time>2026-04-22T15:00:29Z</time></trkpt><trkpt lat="59.0953311604" lon="30.0041558873"><ele>73.68</ele><time>2026-04-22T15:00:45Z</time></trkpt><trkpt lat="59.0953202639" lon="30.0040484313"><ele>74.16</ele><time>2026-04-22T15:00:58Z</time></trkpt><trkpt lat="59.0952693857" lon="30.0038318429"><ele>73.20</ele><time>2026-04-22T15:01:11Z</time></trkpt><trkpt lat="59.0952161606" lon="30.0035264902"><ele>72.72</ele><time>2026-04-22T15:01:28Z</time></trkpt><trkpt lat="59.0951667912" lon="30.0032249931"><ele>72.72</ele><time>2026-04-22T15:01:45Z</time></trkpt><trkpt lat="59.0951426513" lon="30.0030850153"><ele>73.68</ele><time>2026-04-22T15:01:54Z</time></trkpt><trkpt lat="59.0951034240" lon="30.0028583687"><ele>72.72</ele><time>2026-04-22T15:02:11Z</time></trkpt><trkpt lat="59.0950610116" lon="30.0026438758"><ele>72.72</ele><time>2026-04-22T15:02:26Z</time></trkpt><trkpt lat="59.0950337704" lon="30.0024934206"><ele>74.16</ele><time>2026-04-22T15:02:38Z</time></trkpt><trkpt lat="59.0950017516" lon="30.0024559535"><ele>74.16</ele><time>2026-04-22T15:02:53Z</time></trkpt><trkpt lat="59.0950079542" lon="30.0024706218"><ele>72.72</ele><time>2026-04-22T15:03:17Z</time></trkpt><trkpt lat="59.0950037632" lon="30.0024859607"><ele>72.72</ele><time>2026-04-22T15:03:41Z</time></trkpt><trkpt lat="59.0950015839" lon="30.0024760701"><ele>72.72</ele><time>2026-04-22T15:04:09Z</time></trkpt><trkpt lat="59.0950030927" lon="30.0024576299"><ele>72.72</ele><time>2026-04-22T15:04:39Z</time></trkpt><trkpt lat="59.0950057749" lon="30.0024653412"><ele>72.72</ele><time>2026-04-22T15:05:17Z</time></trkpt><trkpt lat="59.0950109717" lon="30.0024738908"><ele>72.72</ele><time>2026-04-22T15:05:45Z</time></trkpt><trkpt lat="59.0950133186" lon="30.0024677720"><ele>72.72</ele><time>2026-04-22T15:06:13Z</time></trkpt><trkpt lat="59.0950170066" lon="30.0024709571"><ele>74.16</ele><time>2026-04-22T15:06:36Z</time></trkpt><trkpt lat="59.0950265620" lon="30.0024878047"><ele>72.72</ele><time>2026-04-22T15:06:58Z</time></trkpt><trkpt lat="59.0950284898" lon="30.0024888106"><ele>74.16</ele><time>2026-04-22T15:07:28Z</time></trkpt><trkpt lat="59.0950256400" lon="30.0024831947"><ele>73.20</ele><time>2026-04-22T15:07:54Z</time></trkpt><trkpt lat="59.0950361174" lon="30.0025020540"><ele>73.20</ele><time>2026-04-22T15:08:25Z</time></trkpt><trkpt lat="59.0950305015" lon="30.0024963543"><ele>73.20</ele><time>2026-04-22T15:08:39Z</time></trkpt><trkpt lat="59.0950229578" lon="30.0024792552"><ele>73.20</ele><time>2026-04-22T15:08:55Z</time></trkpt><trkpt lat="59.0950173419" lon="30.0024704542"><ele>73.20</ele><time>2026-04-22T15:09:20Z</time></trkpt><trkpt lat="59.0950097982" lon="30.0024608150"><ele>74.16</ele><time>2026-04-22T15:09:44Z</time></trkpt><trkpt lat="59.0950016677" lon="30.0024539419"><ele>74.16</ele><time>2026-04-22T15:10:04Z</time></trkpt><trkpt lat="59.0950031765" lon="30.0024303049"><ele>74.64</ele><time>2026-04-22T15:10:31Z</time></trkpt><trkpt lat="59.0950057749" lon="30.0024056621"><ele>74.16</ele><time>2026-04-22T15:10:51Z</time></trkpt><trkpt lat="59.0950119775" lon="30.0024168100"><ele>74.16</ele><time>2026-04-22T15:11:17Z</time></trkpt><trkpt lat="59.0950120613" lon="30.0024099369"><ele>74.16</ele><time>2026-04-22T15:11:49Z</time></trkpt><trkpt lat="59.0950436611" lon="30.0024404470"><ele>74.16</ele><time>2026-04-22T15:12:10Z</time></trkpt><trkpt lat="59.0950392187" lon="30.0025300495"><ele>74.16</ele><time>2026-04-22T15:12:44Z</time></trkpt><trkpt lat="59.0950189345" lon="30.0024997909"><ele>73.68</ele><time>2026-04-22T15:13:03Z</time></trkpt><trkpt lat="59.0950201079" lon="30.0024681073"><ele>73.68</ele><time>2026-04-22T15:13:19Z</time></trkpt><trkpt lat="59.0949904360" lon="30.0024583004"><ele>73.68</ele><time>2026-04-22T15:13:42Z</time></trkpt><trkpt lat="59.0949713252" lon="30.0024241023"><ele>73.68</ele><time>2026-04-22T15:14:01Z</time></trkpt><trkpt lat="59.0949926991" lon="30.0023921672"><ele>73.68</ele><time>2026-04-22T15:14:17Z</time></trkpt><trkpt lat="59.0949937049" lon="30.0023852941"><ele>73.68</ele><time>2026-04-22T15:14:40Z</time></trkpt><trkpt lat="59.0949912742" lon="30.0023835339"><ele>75.12</ele><time>2026-04-22T15:15:02Z</time></trkpt><trkpt lat="59.0949473530" lon="30.0024032313"><ele>74.16</ele><time>2026-04-22T15:15:18Z</time></trkpt><trkpt lat="59.0949586686" lon="30.0024153851"><ele>74.16</ele><time>2026-04-22T15:15:33Z</time></trkpt><trkpt lat="59.0949875861" lon="30.0024654251"><ele>74.16</ele><time>2026-04-22T15:15:56Z</time></trkpt><trkpt lat="59.0949920285" lon="30.0024779141"><ele>73.68</ele><time>2026-04-22T15:16:23Z</time></trkpt><trkpt lat="59.0949926991" lon="30.0024767406"><ele>73.68</ele><time>2026-04-22T15:16:51Z</time></trkpt><trkpt lat="59.0949922800" lon="30.0024846196"><ele>73.68</ele><time>2026-04-22T15:17:23Z</time></trkpt><trkpt lat="59.0949948784" lon="30.0024867989"><ele>75.12</ele><time>2026-04-22T15:17:33Z</time></trkpt><trkpt lat="59.0949963871" lon="30.0024928339"><ele>75.12</ele><time>2026-04-22T15:18:01Z</time></trkpt><trkpt lat="59.0950153302" lon="30.0023860484"><ele>75.12</ele><time>2026-04-22T15:18:17Z</time></trkpt><trkpt lat="59.0950122289" lon="30.0023310632"><ele>75.12</ele><time>2026-04-22T15:18:37Z</time></trkpt><trkpt lat="59.0950122289" lon="30.0023149699"><ele>75.12</ele><time>2026-04-22T15:18:39Z</time></trkpt><trkpt lat="59.0949771926" lon="30.0021607429"><ele>74.16</ele><time>2026-04-22T15:18:46Z</time></trkpt><trkpt lat="59.0949407313" lon="30.0018445775"><ele>75.60</ele><time>2026-04-22T15:18:59Z</time></trkpt><trkpt lat="59.0948773641" lon="30.0015483610"><ele>76.08</ele><time>2026-04-22T15:19:13Z</time></trkpt><trkpt lat="59.0948274918" lon="30.0012322795"><ele>76.08</ele><time>2026-04-22T15:19:27Z</time></trkpt><trkpt lat="59.0947971493" lon="30.0009920541"><ele>74.64</ele><time>2026-04-22T15:19:37Z</time></trkpt><trkpt lat="59.0947443433" lon="30.0006645732"><ele>75.60</ele><time>2026-04-22T15:19:51Z</time></trkpt><trkpt lat="59.0946806408" lon="30.0003779121"><ele>77.04</ele><time>2026-04-22T15:20:05Z</time></trkpt><trkpt lat="59.0946640447" lon="30.0003328174"><ele>77.04</ele><time>2026-04-22T15:20:08Z</time></trkpt><trkpt lat="59.0946555790" lon="30.0002855435"><ele>77.04</ele><time>2026-04-22T15:20:10Z</time></trkpt><trkpt lat="59.0945800580" lon="29.9997752532"><ele>77.04</ele><time>2026-04-22T15:20:32Z</time></trkpt><trkpt lat="59.0945110749" lon="29.9993638694"><ele>77.04</ele><time>2026-04-22T15:20:49Z</time></trkpt><trkpt lat="59.0944533236" lon="29.9990498833"><ele>75.60</ele><time>2026-04-22T15:21:05Z</time></trkpt><trkpt lat="59.0944265854" lon="29.9989299383"><ele>77.04</ele><time>2026-04-22T15:21:10Z</time></trkpt><trkpt lat="59.0943999309" lon="29.9988266733"><ele>76.56</ele><time>2026-04-22T15:21:15Z</time></trkpt><trkpt lat="59.0943510644" lon="29.9987143558"><ele>76.56</ele><time>2026-04-22T15:21:25Z</time></trkpt><trkpt lat="59.0943436045" lon="29.9986782297"><ele>76.08</ele><time>2026-04-22T15:21:27Z</time></trkpt><trkpt lat="59.0943379048" lon="29.9984125234"><ele>77.04</ele><time>2026-04-22T15:21:38Z</time></trkpt><trkpt lat="59.0943065565" lon="29.9982313067"><ele>75.60</ele><time>2026-04-22T15:21:46Z</time></trkpt><trkpt lat="59.0942272637" lon="29.9978545401"><ele>75.12</ele><time>2026-04-22T15:22:04Z</time></trkpt><trkpt lat="59.0942037944" lon="29.9976582360"><ele>75.12</ele><time>2026-04-22T15:22:13Z</time></trkpt><trkpt lat="59.0941333026" lon="29.9972632807"><ele>75.12</ele><time>2026-04-22T15:22:31Z</time></trkpt><trkpt lat="59.0941142756" lon="29.9970539846"><ele>76.08</ele><time>2026-04-22T15:22:40Z</time></trkpt><trkpt lat="59.0940342285" lon="29.9966972508"><ele>76.08</ele><time>2026-04-22T15:22:58Z</time></trkpt><trkpt lat="59.0940354858" lon="29.9966801517"><ele>76.08</ele><time>2026-04-22T15:22:59Z</time></trkpt><trkpt lat="59.0939758066" lon="29.9963794090"><ele>76.08</ele><time>2026-04-22T15:23:17Z</time></trkpt><trkpt lat="59.0939581208" lon="29.9962418620"><ele>76.08</ele><time>2026-04-22T15:23:36Z</time></trkpt><trkpt lat="59.0939044766" lon="29.9959013890"><ele>76.08</ele><time>2026-04-22T15:23:47Z</time></trkpt><trkpt lat="59.0938207414" lon="29.9954085331"><ele>75.12</ele><time>2026-04-22T15:24:02Z</time></trkpt><trkpt lat="59.0938104317" lon="29.9953370355"><ele>75.12</ele><time>2026-04-22T15:24:05Z</time></trkpt><trkpt lat="59.0938145388" lon="29.9953197688"><ele>75.12</ele><time>2026-04-22T15:24:06Z</time></trkpt><trkpt lat="59.0938494075" lon="29.9952971376"><ele>76.56</ele><time>2026-04-22T15:24:10Z</time></trkpt><trkpt lat="59.0938579571" lon="29.9952828884"><ele>76.56</ele><time>2026-04-22T15:24:11Z</time></trkpt><trkpt lat="59.0938671771" lon="29.9952380452"><ele>76.56</ele><time>2026-04-22T15:24:14Z</time></trkpt><trkpt lat="59.0940037183" lon="29.9951543100"><ele>75.60</ele><time>2026-04-22T15:24:27Z</time></trkpt><trkpt lat="59.0940375812" lon="29.9950244743"><ele>75.60</ele><time>2026-04-22T15:24:40Z</time></trkpt><trkpt lat="59.0940256789" lon="29.9950200319"><ele>74.64</ele><time>2026-04-22T15:24:53Z</time></trkpt><trkpt lat="59.0940364078" lon="29.9948922079"><ele>76.08</ele><time>2026-04-22T15:25:08Z</time></trkpt><trkpt lat="59.0940327197" lon="29.9947704189"><ele>76.08</ele><time>2026-04-22T15:25:16Z</time></trkpt><trkpt lat="59.0939369146" lon="29.9945705105"><ele>76.08</ele><time>2026-04-22T15:25:33Z</time></trkpt><trkpt lat="59.0939209051" lon="29.9945130106"><ele>75.12</ele><time>2026-04-22T15:25:36Z</time></trkpt><trkpt lat="59.0938857850" lon="29.9944623839"><ele>76.56</ele><time>2026-04-22T15:25:40Z</time></trkpt><trkpt lat="59.0938757267" lon="29.9944556784"><ele>76.56</ele><time>2026-04-22T15:25:41Z</time></trkpt><trkpt lat="59.0938432049" lon="29.9944734480"><ele>76.56</ele><time>2026-04-22T15:25:44Z</time></trkpt><trkpt lat="59.0937755629" lon="29.9944643117"><ele>76.56</ele><time>2026-04-22T15:25:50Z</time></trkpt><trkpt lat="59.0937104356" lon="29.9944064766"><ele>76.56</ele><time>2026-04-22T15:26:03Z</time></trkpt><trkpt lat="59.0937082563" lon="29.9942585360"><ele>76.56</ele><time>2026-04-22T15:26:08Z</time></trkpt><trkpt lat="59.0936930012" lon="29.9942053109"><ele>76.56</ele><time>2026-04-22T15:26:10Z</time></trkpt><trkpt lat="59.0936109424" lon="29.9937719665"><ele>76.56</ele><time>2026-04-22T15:26:29Z</time></trkpt><trkpt lat="59.0935737267" lon="29.9936446454"><ele>76.56</ele><time>2026-04-22T15:26:37Z</time></trkpt><trkpt lat="59.0935398638" lon="29.9935378600"><ele>76.56</ele><time>2026-04-22T15:26:47Z</time></trkpt><trkpt lat="59.0934383590" lon="29.9931463413"><ele>77.04</ele><time>2026-04-22T15:27:04Z</time></trkpt><trkpt lat="59.0933455713" lon="29.9925799761"><ele>76.08</ele><time>2026-04-22T15:27:27Z</time></trkpt><trkpt lat="59.0932897478" lon="29.9922815803"><ele>76.08</ele><time>2026-04-22T15:27:41Z</time></trkpt><trkpt lat="59.0932165738" lon="29.9918901455"><ele>76.08</ele><time>2026-04-22T15:27:58Z</time></trkpt><trkpt lat="59.0931542125" lon="29.9914956931"><ele>76.08</ele><time>2026-04-22T15:28:14Z</time></trkpt><trkpt lat="59.0931010712" lon="29.9912093673"><ele>77.52</ele><time>2026-04-22T15:28:26Z</time></trkpt><trkpt lat="59.0930304956" lon="29.9908056948"><ele>77.52</ele><time>2026-04-22T15:28:43Z</time></trkpt><trkpt lat="59.0929629374" lon="29.9904187862"><ele>77.52</ele><time>2026-04-22T15:28:58Z</time></trkpt><trkpt lat="59.0929018334" lon="29.9900387507"><ele>78.00</ele><time>2026-04-22T15:29:14Z</time></trkpt><trkpt lat="59.0928152483" lon="29.9896639120"><ele>76.56</ele><time>2026-04-22T15:29:29Z</time></trkpt><trkpt lat="59.0928113088" lon="29.9896349944"><ele>76.56</ele><time>2026-04-22T15:29:30Z</time></trkpt><trkpt lat="59.0927393921" lon="29.9892714713"><ele>78.00</ele><time>2026-04-22T15:29:45Z</time></trkpt><trkpt lat="59.0926542319" lon="29.9887764361"><ele>77.04</ele><time>2026-04-22T15:30:05Z</time></trkpt><trkpt lat="59.0925729275" lon="29.9884269945"><ele>77.04</ele><time>2026-04-22T15:30:20Z</time></trkpt><trkpt lat="59.0925294254" lon="29.9881768785"><ele>77.04</ele><time>2026-04-22T15:30:29Z</time></trkpt><trkpt lat="59.0924755298" lon="29.9879174586"><ele>78.00</ele><time>2026-04-22T15:30:42Z</time></trkpt><trkpt lat="59.0924664773" lon="29.9878481403"><ele>78.00</ele><time>2026-04-22T15:30:45Z</time></trkpt><trkpt lat="59.0924391523" lon="29.9875643291"><ele>76.56</ele><time>2026-04-22T15:30:56Z</time></trkpt><trkpt lat="59.0923668165" lon="29.9871754926"><ele>78.00</ele><time>2026-04-22T15:31:12Z</time></trkpt><trkpt lat="59.0923485439" lon="29.9870428070"><ele>77.04</ele><time>2026-04-22T15:31:17Z</time></trkpt><trkpt lat="59.0922529064" lon="29.9866543058"><ele>78.00</ele><time>2026-04-22T15:31:39Z</time></trkpt><trkpt lat="59.0922367293" lon="29.9866313394"><ele>78.48</ele><time>2026-04-22T15:31:53Z</time></trkpt><trkpt lat="59.0922267549" lon="29.9865897652"><ele>77.52</ele><time>2026-04-22T15:31:55Z</time></trkpt><trkpt lat="59.0921966638" lon="29.9865644518"><ele>77.52</ele><time>2026-04-22T15:32:06Z</time></trkpt><trkpt lat="59.0922167804" lon="29.9865978118"><ele>77.52</ele><time>2026-04-22T15:32:22Z</time></trkpt><trkpt lat="59.0922254976" lon="29.9866787810"><ele>78.48</ele><time>2026-04-22T15:32:32Z</time></trkpt><trkpt lat="59.0922108293" lon="29.9866111390"><ele>78.00</ele><time>2026-04-22T15:32:42Z</time></trkpt><trkpt lat="59.0922117513" lon="29.9866195209"><ele>78.00</ele><time>2026-04-22T15:32:54Z</time></trkpt><trkpt lat="59.0922247432" lon="29.9866224546"><ele>78.48</ele><time>2026-04-22T15:33:06Z</time></trkpt><trkpt lat="59.0922181215" lon="29.9866396375"><ele>78.48</ele><time>2026-04-22T15:33:24Z</time></trkpt><trkpt lat="59.0922375675" lon="29.9866572395"><ele>77.52</ele><time>2026-04-22T15:33:33Z</time></trkpt><trkpt lat="59.0922368132" lon="29.9866700638"><ele>78.97</ele><time>2026-04-22T15:33:58Z</time></trkpt></trkseg></trk></gpx>